Observation data for Dozier on 11/17/2019      Previous  Date  Next       Current Mesonet Observations  Soil Data  Daily Summary Page  Observations in Plain Language
KDO1 170600Z 04004KT 09/03 A2999 RMK A01 T00890026  RH  065%=      5-min Rain = 0
KDO1 170601Z 04004KT 09/03 A2999 RMK A01 T00890026  RH  065%=      5-min Rain = 0
KDO1 170602Z 04004KT 09/03 A2999 RMK A01 T00890026  RH  065%=      5-min Rain = 0
KDO1 170603Z 04004KT 09/03 A2999 RMK A01 T00880026  RH  065%=      5-min Rain = 0
KDO1 170604Z 05004KT 09/03 A2999 RMK A01 T00880026  RH  065%=      5-min Rain = 0
KDO1 170605Z 05004KT 09/03 A2999 RMK A01 T00890025  RH  064%=      5-min Rain = 0
KDO1 170606Z 05004KT 09/03 A2999 RMK A01 T00890025  RH  064%=      5-min Rain = 0
KDO1 170607Z 05004KT 09/03 A2999 RMK A01 T00890025  RH  064%=      5-min Rain = 0
KDO1 170608Z 05004KT 09/03 A2999 RMK A01 T00890025  RH  064%=      5-min Rain = 0
KDO1 170609Z 04004KT 09/03 A2999 RMK A01 T00890025  RH  064%=      5-min Rain = 0
KDO1 170610Z 04004KT 09/03 A2999 RMK A01 T00880025  RH  064%=      5-min Rain = 0
KDO1 170611Z 04004KT 09/02 A2999 RMK A01 T00880024  RH  064%=      5-min Rain = 0
KDO1 170612Z 03004KT 09/02 A2999 RMK A01 T00880023  RH  064%=      5-min Rain = 0
KDO1 170613Z 02003KT 09/02 A30 RMK A01 T00880023  RH  063%=      5-min Rain = 0
KDO1 170614Z 02003KT 09/02 A30 RMK A01 T00880023  RH  064%=      5-min Rain = 0
KDO1 170615Z 02003KT 09/03 A30 RMK A01 T00880025  RH  064%=      5-min Rain = 0
KDO1 170616Z 02004KT 09/03 A30 RMK A01 T00860025  RH  065%=      5-min Rain = 0
KDO1 170617Z 02005KT 09/03 A30 RMK A01 T00850025  RH  066%=      5-min Rain = 0
KDO1 170618Z 02005KT 09/02 A2999 RMK A01 T00850024  RH  066%=      5-min Rain = 0
KDO1 170619Z 02005KT 09/02 A2999 RMK A01 T00850024  RH  066%=      5-min Rain = 0
KDO1 170620Z 02004KT 09/02 A2999 RMK A01 T00850023  RH  065%=      5-min Rain = 0
KDO1 170621Z 01004KT 09/02 A2999 RMK A01 T00850023  RH  065%=      5-min Rain = 0
KDO1 170622Z 01005KT 09/02 A2999 RMK A01 T00850023  RH  065%=      5-min Rain = 0
KDO1 170623Z 02004KT 09/02 A2999 RMK A01 T00850023  RH  065%=      5-min Rain = 0
KDO1 170624Z 02004KT 09/02 A2999 RMK A01 T00850024  RH  065%=      5-min Rain = 0
KDO1 170625Z 02004KT 08/02 A2999 RMK A01 T00840023  RH  065%=      5-min Rain = 0
KDO1 170626Z 03004KT 08/02 A2999 RMK A01 T00840022  RH  065%=      5-min Rain = 0
KDO1 170627Z 02003KT 08/02 A2999 RMK A01 T00840021  RH  064%=      5-min Rain = 0
KDO1 170628Z 03004KT 09/02 A2999 RMK A01 T00850021  RH  064%=      5-min Rain = 0
KDO1 170629Z 03005KT 09/02 A2999 RMK A01 T00860021  RH  064%=      5-min Rain = 0
KDO1 170630Z 03005KT 09/02 A2999 RMK A01 T00870021  RH  063%=      5-min Rain = 0
KDO1 170631Z 03006KT 09/02 A2999 RMK A01 T00870021  RH  063%=      5-min Rain = 0
KDO1 170632Z 03006KT 09/02 A2999 RMK A01 T00870022  RH  064%=      5-min Rain = 0
KDO1 170633Z 02005KT 09/02 A2999 RMK A01 T00870022  RH  064%=      5-min Rain = 0
KDO1 170634Z 02005KT 09/02 A2999 RMK A01 T00860022  RH  064%=      5-min Rain = 0
KDO1 170635Z 01005KT 09/02 A2999 RMK A01 T00860021  RH  064%=      5-min Rain = 0
KDO1 170636Z 01005KT 09/02 A2999 RMK A01 T00860022  RH  064%=      5-min Rain = 0
KDO1 170637Z 01005KT 09/02 A2999 RMK A01 T00860023  RH  065%=      5-min Rain = 0
KDO1 170638Z 01005KT 09/02 A2999 RMK A01 T00850023  RH  065%=      5-min Rain = 0
KDO1 170639Z 00005KT 08/02 A2999 RMK A01 T00840023  RH  065%=      5-min Rain = 0
KDO1 170640Z 00006KT 08/02 A2999 RMK A01 T00830023  RH  066%=      5-min Rain = 0
KDO1 170641Z 00006KT 08/02 A2999 RMK A01 T00820023  RH  066%=      5-min Rain = 0
KDO1 170642Z 01005KT 08/02 A2999 RMK A01 T00810022  RH  066%=      5-min Rain = 0
KDO1 170643Z 01005KT 08/02 A2999 RMK A01 T00810023  RH  067%=      5-min Rain = 0
KDO1 170644Z 02005KT 08/02 A2999 RMK A01 T00810022  RH  066%=      5-min Rain = 0
KDO1 170645Z 02004KT 08/02 A2999 RMK A01 T00810022  RH  066%=      5-min Rain = 0
KDO1 170646Z 02004KT 08/02 A2999 RMK A01 T00810021  RH  066%=      5-min Rain = 0
KDO1 170647Z 02005KT 08/02 A2999 RMK A01 T00820021  RH  066%=      5-min Rain = 0
KDO1 170648Z 02005KT 08/02 A2999 RMK A01 T00820021  RH  065%=      5-min Rain = 0
KDO1 170649Z 02004KT 08/02 A2999 RMK A01 T00820021  RH  065%=      5-min Rain = 0
KDO1 170650Z 02005KT 08/02 A2999 RMK A01 T00820020  RH  065%=      5-min Rain = 0
KDO1 170651Z 01005KT 08/02 A2999 RMK A01 T00820021  RH  065%=      5-min Rain = 0
KDO1 170652Z 01005KT 08/02 A2999 RMK A01 T00820021  RH  065%=      5-min Rain = 0
KDO1 170653Z 01005KT 08/02 A2999 RMK A01 T00820021  RH  065%=      5-min Rain = 0
KDO1 170654Z 02006KT 08/02 A2999 RMK A01 T00820021  RH  065%=      5-min Rain = 0
KDO1 170655Z 02006KT 08/02 A2999 RMK A01 T00820020  RH  065%=      5-min Rain = 0
KDO1 170656Z 02006KT 08/02 A2998 RMK A01 T00830020  RH  065%=      5-min Rain = 0
KDO1 170657Z 02006KT 08/02 A2998 RMK A01 T00830020  RH  065%=      5-min Rain = 0
KDO1 170658Z 02006KT 08/02 A2998 RMK A01 T00830020  RH  064%=      5-min Rain = 0
KDO1 170659Z 02006KT 08/02 A2998 RMK A01 T00830020  RH  064%=      5-min Rain = 0
KDO1 170700Z 02006KT 08/02 A2997 RMK A01 T00830020  RH  064%=      5-min Rain = 0
KDO1 170701Z 02006KT 08/02 A2997 RMK A01 T00830019  RH  064%=      5-min Rain = 0
KDO1 170702Z 02007KT 08/02 A2997 RMK A01 T00830019  RH  064%=      5-min Rain = 0
KDO1 170703Z 02007KT 08/02 A2997 RMK A01 T00830019  RH  064%=      5-min Rain = 0
KDO1 170704Z 02007KT 08/02 A2997 RMK A01 T00830019  RH  064%=      5-min Rain = 0
KDO1 170705Z 02007KT 08/02 A2997 RMK A01 T00830019  RH  064%=      5-min Rain = 0
KDO1 170706Z 02006KT 08/02 A2997 RMK A01 T00830019  RH  064%=      5-min Rain = 0
KDO1 170707Z 01007KT 08/02 A2997 RMK A01 T00830019  RH  064%=      5-min Rain = 0
KDO1 170708Z 01007KT 08/02 A2998 RMK A01 T00830019  RH  064%=      5-min Rain = 0
KDO1 170709Z 00006KT 08/02 A2998 RMK A01 T00830020  RH  065%=      5-min Rain = 0
KDO1 170710Z 00005KT 08/02 A2998 RMK A01 T00820020  RH  065%=      5-min Rain = 0
KDO1 170711Z 36005KT 08/02 A2998 RMK A01 T00810020  RH  065%=      5-min Rain = 0
KDO1 170712Z 36005KT 08/02 A2998 RMK A01 T00810020  RH  066%=      5-min Rain = 0
KDO1 170713Z 36005KT 08/02 A2999 RMK A01 T00800020  RH  066%=      5-min Rain = 0
KDO1 170714Z 36005KT 08/02 A2999 RMK A01 T00800020  RH  066%=      5-min Rain = 0
KDO1 170715Z 00006KT 08/02 A2999 RMK A01 T00790020  RH  066%=      5-min Rain = 0
KDO1 170716Z 00006KT 08/02 A2999 RMK A01 T00790020  RH  066%=      5-min Rain = 0
KDO1 170717Z 00007KT 08/02 A2998 RMK A01 T00790020  RH  066%=      5-min Rain = 0
KDO1 170718Z 36007KT 08/02 A2998 RMK A01 T00790019  RH  066%=      5-min Rain = 0
KDO1 170719Z 36007KT 08/02 A2998 RMK A01 T00790020  RH  066%=      5-min Rain = 0
KDO1 170720Z 36007KT 08/02 A2998 RMK A01 T00790020  RH  066%=      5-min Rain = 0
KDO1 170721Z 36007KT 08/02 A2998 RMK A01 T00780019  RH  066%=      5-min Rain = 0
KDO1 170722Z 36007KT 08/02 A2998 RMK A01 T00780019  RH  066%=      5-min Rain = 0
KDO1 170723Z 00007KT 08/02 A2998 RMK A01 T00780019  RH  066%=      5-min Rain = 0
KDO1 170724Z 36007KT 08/02 A2998 RMK A01 T00780019  RH  066%=      5-min Rain = 0
KDO1 170725Z 36007KT 08/02 A2998 RMK A01 T00780019  RH  066%=      5-min Rain = 0
KDO1 170726Z 36007KT 08/02 A2998 RMK A01 T00790019  RH  066%=      5-min Rain = 0
KDO1 170727Z 35006KT 08/02 A2998 RMK A01 T00790019  RH  065%=      5-min Rain = 0
KDO1 170728Z 36007KT 08/02 A2998 RMK A01 T00800019  RH  065%=      5-min Rain = 0
KDO1 170729Z 35006KT 08/02 A2999 RMK A01 T00800019  RH  065%=      5-min Rain = 0
KDO1 170730Z 35006KT 08/02 A2999 RMK A01 T00800018  RH  065%=      5-min Rain = 0
KDO1 170731Z 34006KT 08/02 A2999 RMK A01 T00800019  RH  065%=      5-min Rain = 0
KDO1 170732Z 34005KT 08/02 A2999 RMK A01 T00800019  RH  065%=      5-min Rain = 0
KDO1 170733Z 34006KT 08/02 A2999 RMK A01 T00800019  RH  065%=      5-min Rain = 0
KDO1 170734Z 34004KT 08/02 A30 RMK A01 T00800019  RH  065%=      5-min Rain = 0
KDO1 170735Z 34004KT 08/02 A30 RMK A01 T00800019  RH  065%=      5-min Rain = 0
KDO1 170736Z 33003KT 08/02 A30 RMK A01 T00800019  RH  065%=      5-min Rain = 0
KDO1 170737Z 33003KT 08/02 A30 RMK A01 T00810019  RH  065%=      5-min Rain = 0
KDO1 170738Z 33003KT 08/02 A30 RMK A01 T00810019  RH  065%=      5-min Rain = 0
KDO1 170739Z 33004KT 08/02 A30 RMK A01 T00810018  RH  064%=      5-min Rain = 0
KDO1 170740Z 34004KT 08/02 A30 RMK A01 T00810018  RH  064%=      5-min Rain = 0
KDO1 170741Z 33004KT 08/02 A30 RMK A01 T00810018  RH  064%=      5-min Rain = 0
KDO1 170742Z 34003KT 08/02 A30 RMK A01 T00820018  RH  064%=      5-min Rain = 0
KDO1 170743Z 34004KT 08/02 A30 RMK A01 T00820018  RH  064%=      5-min Rain = 0
KDO1 170744Z 34004KT 08/02 A30 RMK A01 T00820018  RH  064%=      5-min Rain = 0
KDO1 170745Z 34005KT 08/02 A30 RMK A01 T00820019  RH  064%=      5-min Rain = 0
KDO1 170746Z 34005KT 08/02 A30 RMK A01 T00820019  RH  065%=      5-min Rain = 0
KDO1 170747Z 35005KT 08/02 A30 RMK A01 T00810019  RH  065%=      5-min Rain = 0
KDO1 170748Z 35005KT 08/02 A30 RMK A01 T00810019  RH  065%=      5-min Rain = 0
KDO1 170749Z 35004KT 08/02 A30 RMK A01 T00810020  RH  065%=      5-min Rain = 0
KDO1 170750Z 34005KT 08/02 A30 RMK A01 T00800020  RH  066%=      5-min Rain = 0
KDO1 170751Z 34005KT 08/02 A30 RMK A01 T00800021  RH  066%=      5-min Rain = 0
KDO1 170752Z 33005KT 08/02 A30 RMK A01 T00800020  RH  066%=      5-min Rain = 0
KDO1 170753Z 33005KT 08/02 A30 RMK A01 T00790020  RH  066%=      5-min Rain = 0
KDO1 170754Z 33005KT 08/02 A30 RMK A01 T00790020  RH  066%=      5-min Rain = 0
KDO1 170755Z 33005KT 08/02 A30 RMK A01 T00790021  RH  067%=      5-min Rain = 0
KDO1 170756Z 33005KT 08/02 A30 RMK A01 T00780021  RH  067%=      5-min Rain = 0
KDO1 170757Z 33004KT 08/02 A30 RMK A01 T00780022  RH  068%=      5-min Rain = 0
KDO1 170758Z 32005KT 08/02 A30 RMK A01 T00780023  RH  068%=      5-min Rain = 0
KDO1 170759Z 32005KT 08/02 A3001 RMK A01 T00780023  RH  068%=      5-min Rain = 0
KDO1 170800Z 33004KT 08/02 A3001 RMK A01 T00780023  RH  068%=      5-min Rain = 0
KDO1 170801Z 33004KT 08/02 A3001 RMK A01 T00780023  RH  068%=      5-min Rain = 0
KDO1 170802Z 34005KT 08/02 A3001 RMK A01 T00780024  RH  068%=      5-min Rain = 0
KDO1 170803Z 34005KT 08/02 A3001 RMK A01 T00780024  RH  068%=      5-min Rain = 0
KDO1 170804Z 33006KT 08/02 A3001 RMK A01 T00780024  RH  069%=      5-min Rain = 0
KDO1 170805Z 34006KT 08/02 A3001 RMK A01 T00770023  RH  069%=      5-min Rain = 0
KDO1 170806Z 34006KT 08/02 A3001 RMK A01 T00770024  RH  069%=      5-min Rain = 0
KDO1 170807Z 34006KT 08/03 A3001 RMK A01 T00780025  RH  069%=      5-min Rain = 0
KDO1 170808Z 34007KT 08/02 A3001 RMK A01 T00780024  RH  069%=      5-min Rain = 0
KDO1 170809Z 34007KT 08/03 A3001 RMK A01 T00780025  RH  069%=      5-min Rain = 0
KDO1 170810Z 34007KT 08/03 A3001 RMK A01 T00780025  RH  069%=      5-min Rain = 0
KDO1 170811Z 33007KT 08/03 A3002 RMK A01 T00790026  RH  069%=      5-min Rain = 0
KDO1 170812Z 33008KT 08/03 A3002 RMK A01 T00800027  RH  069%=      5-min Rain = 0
KDO1 170813Z 33007KT 08/03 A3002 RMK A01 T00800027  RH  069%=      5-min Rain = 0
KDO1 170814Z 33006KT 08/03 A3002 RMK A01 T00820028  RH  069%=      5-min Rain = 0
KDO1 170815Z 33005KT 08/03 A3001 RMK A01 T00830028  RH  068%=      5-min Rain = 0
KDO1 170816Z 33005KT 08/03 A3001 RMK A01 T00830028  RH  068%=      5-min Rain = 0
KDO1 170817Z 34005KT 08/03 A3001 RMK A01 T00840028  RH  068%=      5-min Rain = 0
KDO1 170818Z 35004KT 08/03 A3001 RMK A01 T00840028  RH  068%=      5-min Rain = 0
KDO1 170819Z 35004KT 08/03 A3001 RMK A01 T00840028  RH  068%=      5-min Rain = 0
KDO1 170820Z 35004KT 08/03 A3001 RMK A01 T00840028  RH  068%=      5-min Rain = 0
KDO1 170821Z 35004KT 08/03 A3001 RMK A01 T00840028  RH  068%=      5-min Rain = 0
KDO1 170822Z 35004KT 08/03 A3001 RMK A01 T00830028  RH  068%=      5-min Rain = 0
KDO1 170823Z 35004KT 08/03 A3001 RMK A01 T00830028  RH  068%=      5-min Rain = 0
KDO1 170824Z 35004KT 08/03 A3001 RMK A01 T00830028  RH  068%=      5-min Rain = 0
KDO1 170825Z 35005KT 08/03 A3001 RMK A01 T00820028  RH  069%=      5-min Rain = 0
KDO1 170826Z 35004KT 08/03 A3001 RMK A01 T00820028  RH  069%=      5-min Rain = 0
KDO1 170827Z 36004KT 08/03 A3001 RMK A01 T00810028  RH  069%=      5-min Rain = 0
KDO1 170828Z 35004KT 08/03 A3001 RMK A01 T00810028  RH  069%=      5-min Rain = 0
KDO1 170829Z 35005KT 08/03 A3001 RMK A01 T00800028  RH  070%=      5-min Rain = 0
KDO1 170830Z 35005KT 08/03 A3001 RMK A01 T00790028  RH  070%=      5-min Rain = 0
KDO1 170831Z 35006KT 08/03 A3001 RMK A01 T00790028  RH  071%=      5-min Rain = 0
KDO1 170832Z 35007KT 08/03 A3001 RMK A01 T00780028  RH  071%=      5-min Rain = 0
KDO1 170833Z 34007KT 08/03 A3001 RMK A01 T00770029  RH  071%=      5-min Rain = 0
KDO1 170834Z 34008KT 08/03 A3001 RMK A01 T00770029  RH  072%=      5-min Rain = 0
KDO1 170835Z 34008KT 08/03 A3001 RMK A01 T00770029  RH  072%=      5-min Rain = 0
KDO1 170836Z 34008KT 08/03 A3001 RMK A01 T00770029  RH  072%=      5-min Rain = 0
KDO1 170837Z 34008KT 08/03 A3001 RMK A01 T00770029  RH  072%=      5-min Rain = 0
KDO1 170838Z 34009KT 08/03 A3002 RMK A01 T00780030  RH  072%=      5-min Rain = 0
KDO1 170839Z 34008KT 08/03 A3002 RMK A01 T00790030  RH  071%=      5-min Rain = 0
KDO1 170840Z 33007KT 08/03 A3002 RMK A01 T00790031  RH  071%=      5-min Rain = 0
KDO1 170841Z 34007KT 08/03 A3002 RMK A01 T00800031  RH  071%=      5-min Rain = 0
KDO1 170842Z 33008KT 08/03 A3002 RMK A01 T00800031  RH  071%=      5-min Rain = 0
KDO1 170843Z 33008KT 08/03 A3002 RMK A01 T00800031  RH  071%=      5-min Rain = 0
KDO1 170844Z 33008KT 08/03 A3002 RMK A01 T00800032  RH  072%=      5-min Rain = 0
KDO1 170845Z 33009KT 08/03 A3002 RMK A01 T00800033  RH  072%=      5-min Rain = 0
KDO1 170846Z 33008KT 08/03 A3002 RMK A01 T00800033  RH  072%=      5-min Rain = 0
KDO1 170847Z 33009KT 08/03 A3002 RMK A01 T00800033  RH  072%=      5-min Rain = 0
KDO1 170848Z 33009KT 08/03 A3002 RMK A01 T00800033  RH  072%=      5-min Rain = 0
KDO1 170849Z 33011KT 08/03 A3002 RMK A01 T00810033  RH  072%=      5-min Rain = 0
KDO1 170850Z 33012KT 08/03 A3002 RMK A01 T00820032  RH  071%=      5-min Rain = 0
KDO1 170851Z 34013KT 09/03 A3002 RMK A01 T00850032  RH  069%=      5-min Rain = 0
KDO1 170852Z 34013KT 09/03 A3002 RMK A01 T00880031  RH  067%=      5-min Rain = 0
KDO1 170853Z 34012KT 09/03 A3002 RMK A01 T00900031  RH  066%=      5-min Rain = 0
KDO1 170854Z 34013KT 09/03 A3002 RMK A01 T00910030  RH  066%=      5-min Rain = 0
KDO1 170855Z 34013G18KT 09/03 A3002 RMK A01 T00910029  RH  065%=      5-min Rain = 0
KDO1 170856Z 34014G20KT 09/03 A3002 RMK A01 T00910030  RH  065%=      5-min Rain = 0
KDO1 170857Z 35017KT 09/03 A3002 RMK A01 T00910029  RH  065%=      5-min Rain = 0
KDO1 170858Z 35014KT 09/03 A3002 RMK A01 T00910028  RH  064%=      5-min Rain = 0
KDO1 170859Z 35015KT 09/03 A3002 RMK A01 T00920028  RH  064%=      5-min Rain = 0
KDO1 170900Z 35013G20KT 09/03 A3002 RMK A01 T00910027  RH  064%=      5-min Rain = 0
KDO1 170901Z 35013G20KT 09/03 A3002 RMK A01 T00920027  RH  064%=      5-min Rain = 0
KDO1 170902Z 00012KT 09/03 A3002 RMK A01 T00920026  RH  064%=      5-min Rain = 0
KDO1 170903Z 36012KT 09/03 A3002 RMK A01 T00920026  RH  063%=      5-min Rain = 0
KDO1 170904Z 35013G19KT 09/03 A3002 RMK A01 T00920026  RH  063%=      5-min Rain = 0
KDO1 170905Z 36013KT 09/03 A3002 RMK A01 T00920025  RH  063%=      5-min Rain = 0
KDO1 170906Z 36016G22KT 09/02 A3002 RMK A01 T00920023  RH  062%=      5-min Rain = 0
KDO1 170907Z 00014G19KT 09/02 A3002 RMK A01 T00930022  RH  061%=      5-min Rain = 0
KDO1 170908Z 36016G24KT 09/02 A3002 RMK A01 T00940021  RH  060%=      5-min Rain = 0
KDO1 170909Z 36017G22KT 10/02 A3002 RMK A01 T00950019  RH  059%=      5-min Rain = 0
KDO1 170910Z 36015G21KT 10/02 A3002 RMK A01 T00960019  RH  058%=      5-min Rain = 0
KDO1 170911Z 36012KT 10/02 A3002 RMK A01 T00970018  RH  058%=      5-min Rain = 0
KDO1 170912Z 35018G24KT 10/02 A3002 RMK A01 T00970018  RH  058%=      5-min Rain = 0
KDO1 170913Z 36015KT 10/02 A3002 RMK A01 T00980017  RH  057%=      5-min Rain = 0
KDO1 170914Z 35016G21KT 10/02 A3002 RMK A01 T00980017  RH  057%=      5-min Rain = 0
KDO1 170915Z 35019G24KT 10/02 A3002 RMK A01 T00980015  RH  056%=      5-min Rain = 0
KDO1 170916Z 35014KT 10/01 A3002 RMK A01 T00990014  RH  056%=      5-min Rain = 0
KDO1 170917Z 36016G22KT 10/01 A3002 RMK A01 T00990014  RH  055%=      5-min Rain = 0
KDO1 170918Z 00015G20KT 10/01 A3002 RMK A01 T00990013  RH  055%=      5-min Rain = 0
KDO1 170919Z 36017G24KT 10/01 A3002 RMK A01 T01000012  RH  054%=      5-min Rain = 0
KDO1 170920Z 36021KT 10/01 A3002 RMK A01 T01000010  RH  053%=      5-min Rain = 0
KDO1 170921Z 36019G25KT 10/01 A3002 RMK A01 T01020008  RH  052%=      5-min Rain = 0
KDO1 170922Z 36018G25KT 10/01 A3002 RMK A01 T01030008  RH  052%=      5-min Rain = 0
KDO1 170923Z 00019G24KT 10/01 A3002 RMK A01 T01030007  RH  051%=      5-min Rain = 0
KDO1 170924Z 00017KT 10/01 A3002 RMK A01 T01040007  RH  051%=      5-min Rain = 0
KDO1 170925Z 00017G22KT 10/01 A3002 RMK A01 T01040007  RH  051%=      5-min Rain = 0
KDO1 170926Z 00016G21KT 10/01 A3002 RMK A01 T01040007  RH  051%=      5-min Rain = 0
KDO1 170927Z 36014G21KT 10/01 A3002 RMK A01 T01040007  RH  051%=      5-min Rain = 0
KDO1 170928Z 36020KT 10/01 A3002 RMK A01 T01030007  RH  051%=      5-min Rain = 0
KDO1 170929Z 36019KT 10/01 A3002 RMK A01 T01030006  RH  051%=      5-min Rain = 0
KDO1 170930Z 00017G22KT 10/01 A3002 RMK A01 T01030006  RH  051%=      5-min Rain = 0
KDO1 170931Z 36016G21KT 10/01 A3003 RMK A01 T01030006  RH  051%=      5-min Rain = 0
KDO1 170932Z 35015G23KT 10/01 A3003 RMK A01 T01030006  RH  051%=      5-min Rain = 0
KDO1 170933Z 00018KT 10/01 A3003 RMK A01 T01030006  RH  051%=      5-min Rain = 0
KDO1 170934Z 36015G22KT 10/01 A3003 RMK A01 T01030006  RH  051%=      5-min Rain = 0
KDO1 170935Z 36019G24KT 10/01 A3003 RMK A01 T01030007  RH  051%=      5-min Rain = 0
KDO1 170936Z 35018G25KT 10/01 A3003 RMK A01 T01020006  RH  051%=      5-min Rain = 0
KDO1 170937Z 36016G21KT 10/01 A3003 RMK A01 T01030006  RH  051%=      5-min Rain = 0
KDO1 170938Z 36017KT 10/01 A3003 RMK A01 T01030007  RH  051%=      5-min Rain = 0
KDO1 170939Z 36016G22KT 10/01 A3003 RMK A01 T01020006  RH  051%=      5-min Rain = 0
KDO1 170940Z 00018G24KT 10/01 A3003 RMK A01 T01020006  RH  051%=      5-min Rain = 0
KDO1 170941Z 36019KT 10/01 A3003 RMK A01 T01020007  RH  051%=      5-min Rain = 0
KDO1 170942Z 36018G23KT 10/01 A3003 RMK A01 T01020006  RH  051%=      5-min Rain = 0
KDO1 170943Z 00015G20KT 10/01 A3003 RMK A01 T01020006  RH  051%=      5-min Rain = 0
KDO1 170944Z 00017G25KT 10/01 A3003 RMK A01 T01020006  RH  052%=      5-min Rain = 0
KDO1 170945Z 36017G23KT 10/01 A3003 RMK A01 T01020007  RH  052%=      5-min Rain = 0
KDO1 170946Z 00015G21KT 10/01 A3003 RMK A01 T01020007  RH  052%=      5-min Rain = 0
KDO1 170947Z 36014KT 10/01 A3003 RMK A01 T01010007  RH  052%=      5-min Rain = 0
KDO1 170948Z 00016KT 10/01 A3003 RMK A01 T01010007  RH  052%=      5-min Rain = 0
KDO1 170949Z 35018G23KT 10/01 A3004 RMK A01 T01010007  RH  052%=      5-min Rain = 0
KDO1 170950Z 36015G20KT 10/01 A3003 RMK A01 T01010007  RH  052%=      5-min Rain = 0
KDO1 170951Z 36015G22KT 10/01 A3003 RMK A01 T01010007  RH  052%=      5-min Rain = 0
KDO1 170952Z 36015KT 10/01 A3003 RMK A01 T01010007  RH  052%=      5-min Rain = 0
KDO1 170953Z 00016KT 10/01 A3003 RMK A01 T01000007  RH  052%=      5-min Rain = 0
KDO1 170954Z 00017G23KT 10/01 A3003 RMK A01 T01000007  RH  052%=      5-min Rain = 0
KDO1 170955Z 36017KT 10/01 A3003 RMK A01 T01000007  RH  052%=      5-min Rain = 0
KDO1 170956Z 36017G23KT 10/01 A3003 RMK A01 T01000007  RH  052%=      5-min Rain = 0
KDO1 170957Z 00015G20KT 10/01 A3003 RMK A01 T01000007  RH  052%=      5-min Rain = 0
KDO1 170958Z 00015G20KT 10/01 A3003 RMK A01 T01000007  RH  052%=      5-min Rain = 0
KDO1 170959Z 00013KT 10/01 A3003 RMK A01 T01000007  RH  052%=      5-min Rain = 0
KDO1 171000Z 36017KT 10/01 A3003 RMK A01 T01000008  RH  053%=      5-min Rain = 0
KDO1 171001Z 36017G23KT 10/01 A3004 RMK A01 T01000008  RH  053%=      5-min Rain = 0
KDO1 171002Z 36017G22KT 10/01 A3004 RMK A01 T01010008  RH  052%=      5-min Rain = 0
KDO1 171003Z 00018G24KT 10/01 A3004 RMK A01 T01010008  RH  052%=      5-min Rain = 0
KDO1 171004Z 36017G24KT 10/01 A3004 RMK A01 T01010008  RH  053%=      5-min Rain = 0
KDO1 171005Z 36017KT 10/01 A3004 RMK A01 T01010008  RH  052%=      5-min Rain = 0
KDO1 171006Z 00014KT 10/01 A3004 RMK A01 T01010009  RH  053%=      5-min Rain = 0
KDO1 171007Z 00014G20KT 10/01 A3004 RMK A01 T01010009  RH  053%=      5-min Rain = 0
KDO1 171008Z 35016G25KT 10/01 A3004 RMK A01 T01000008  RH  053%=      5-min Rain = 0
KDO1 171009Z 00019G24KT 10/01 A3004 RMK A01 T01010009  RH  053%=      5-min Rain = 0
KDO1 171010Z 36017KT 10/01 A3004 RMK A01 T01010009  RH  053%=      5-min Rain = 0
KDO1 171011Z 01012G17KT 10/01 A3003 RMK A01 T01020009  RH  053%=      5-min Rain = 0
KDO1 171012Z 01015KT 10/01 A3003 RMK A01 T01020009  RH  053%=      5-min Rain = 0
KDO1 171013Z 00013G18KT 10/01 A3003 RMK A01 T01010009  RH  053%=      5-min Rain = 0
KDO1 171014Z 01013KT 10/01 A3004 RMK A01 T01010009  RH  053%=      5-min Rain = 0
KDO1 171015Z 36015G20KT 10/01 A3004 RMK A01 T01010010  RH  053%=      5-min Rain = 0
KDO1 171016Z 36015KT 10/01 A3004 RMK A01 T01010010  RH  053%=      5-min Rain = 0
KDO1 171017Z 36014G19KT 10/01 A3004 RMK A01 T01010010  RH  053%=      5-min Rain = 0
KDO1 171018Z 00012G17KT 10/01 A3004 RMK A01 T01010010  RH  053%=      5-min Rain = 0
KDO1 171019Z 01012KT 10/01 A3004 RMK A01 T01010010  RH  053%=      5-min Rain = 0
KDO1 171020Z 00015KT 10/01 A3004 RMK A01 T01010010  RH  053%=      5-min Rain = 0
KDO1 171021Z 36017KT 10/01 A3004 RMK A01 T01010010  RH  053%=      5-min Rain = 0
KDO1 171022Z 36015G20KT 10/01 A3004 RMK A01 T01020010  RH  053%=      5-min Rain = 0
KDO1 171023Z 35015KT 10/01 A3004 RMK A01 T01020010  RH  053%=      5-min Rain = 0
KDO1 171024Z 01014G19KT 10/01 A3004 RMK A01 T01020010  RH  053%=      5-min Rain = 0
KDO1 171025Z 00014G21KT 10/01 A3004 RMK A01 T01030010  RH  053%=      5-min Rain = 0
KDO1 171026Z 36018G23KT 10/01 A3005 RMK A01 T01020010  RH  053%=      5-min Rain = 0
KDO1 171027Z 00016G21KT 10/01 A3004 RMK A01 T01030011  RH  053%=      5-min Rain = 0
KDO1 171028Z 00015G21KT 10/01 A3004 RMK A01 T01030010  RH  053%=      5-min Rain = 0
KDO1 171029Z 00015G22KT 10/01 A3004 RMK A01 T01030011  RH  053%=      5-min Rain = 0
KDO1 171030Z 01013G19KT 10/01 A3004 RMK A01 T01030011  RH  053%=      5-min Rain = 0
KDO1 171031Z 36013G21KT 10/01 A3004 RMK A01 T01030011  RH  053%=      5-min Rain = 0
KDO1 171032Z 00015G20KT 10/01 A3004 RMK A01 T01030011  RH  053%=      5-min Rain = 0
KDO1 171033Z 01017G23KT 10/01 A3004 RMK A01 T01020011  RH  053%=      5-min Rain = 0
KDO1 171034Z 00016G22KT 10/01 A3004 RMK A01 T01020011  RH  053%=      5-min Rain = 0
KDO1 171035Z 01014G19KT 10/01 A3004 RMK A01 T01020011  RH  053%=      5-min Rain = 0
KDO1 171036Z 00017G23KT 10/01 A3005 RMK A01 T01020011  RH  053%=      5-min Rain = 0
KDO1 171037Z 01018G26KT 10/01 A3005 RMK A01 T01020011  RH  053%=      5-min Rain = 0
KDO1 171038Z 00016G21KT 10/01 A3005 RMK A01 T01020011  RH  053%=      5-min Rain = 0
KDO1 171039Z 00016KT 10/01 A3005 RMK A01 T01020011  RH  053%=      5-min Rain = 0
KDO1 171040Z 00018G25KT 10/01 A3005 RMK A01 T01020012  RH  054%=      5-min Rain = 0
KDO1 171041Z 00017G23KT 10/01 A3005 RMK A01 T01010011  RH  054%=      5-min Rain = 0
KDO1 171042Z 00015KT 10/01 A3005 RMK A01 T01020012  RH  054%=      5-min Rain = 0
KDO1 171043Z 00018KT 10/01 A3005 RMK A01 T01010011  RH  054%=      5-min Rain = 0
KDO1 171044Z 00017G22KT 10/01 A3005 RMK A01 T01000012  RH  054%=      5-min Rain = 0
KDO1 171045Z 01017KT 10/01 A3005 RMK A01 T01000012  RH  054%=      5-min Rain = 0
KDO1 171046Z 36016G22KT 10/01 A3005 RMK A01 T01000012  RH  054%=      5-min Rain = 0
KDO1 171047Z 00019KT 10/01 A3005 RMK A01 T01000012  RH  054%=      5-min Rain = 0
KDO1 171048Z 00017G22KT 10/01 A3005 RMK A01 T01000012  RH  054%=      5-min Rain = 0
KDO1 171049Z 01016G21KT 10/01 A3005 RMK A01 T01000012  RH  054%=      5-min Rain = 0
KDO1 171050Z 36019G24KT 10/01 A3005 RMK A01 T01010013  RH  054%=      5-min Rain = 0
KDO1 171051Z 01018G25KT 10/01 A3005 RMK A01 T01000013  RH  054%=      5-min Rain = 0
KDO1 171052Z 36016G22KT 10/01 A3005 RMK A01 T01000012  RH  055%=      5-min Rain = 0
KDO1 171053Z 01014G20KT 10/01 A3005 RMK A01 T00990012  RH  055%=      5-min Rain = 0
KDO1 171054Z 36016G23KT 10/01 A3005 RMK A01 T00980012  RH  055%=      5-min Rain = 0
KDO1 171055Z 00018G23KT 10/01 A3006 RMK A01 T00980012  RH  055%=      5-min Rain = 0
KDO1 171056Z 00018KT 10/01 A3006 RMK A01 T00980013  RH  055%=      5-min Rain = 0
KDO1 171057Z 00017KT 10/01 A3006 RMK A01 T00980013  RH  055%=      5-min Rain = 0
KDO1 171058Z 00021KT 10/01 A3006 RMK A01 T00980013  RH  055%=      5-min Rain = 0
KDO1 171059Z 36016G22KT 10/01 A3006 RMK A01 T00980013  RH  055%=      5-min Rain = 0
KDO1 171100Z 36016G21KT 10/01 A3006 RMK A01 T00980013  RH  055%=      5-min Rain = 0
KDO1 171101Z 35015KT 10/01 A3006 RMK A01 T00970013  RH  056%=      5-min Rain = 0
KDO1 171102Z 36017G26KT 10/01 A3006 RMK A01 T00970013  RH  056%=      5-min Rain = 0
KDO1 171103Z 00017G22KT 10/01 A3006 RMK A01 T00970013  RH  056%=      5-min Rain = 0
KDO1 171104Z 00019G24KT 10/01 A3006 RMK A01 T00970013  RH  056%=      5-min Rain = 0
KDO1 171105Z 00018G25KT 10/01 A3007 RMK A01 T00970014  RH  056%=      5-min Rain = 0
KDO1 171106Z 36017G22KT 10/01 A3006 RMK A01 T00970014  RH  056%=      5-min Rain = 0
KDO1 171107Z 36015G20KT 10/01 A3007 RMK A01 T00970014  RH  056%=      5-min Rain = 0
KDO1 171108Z 36019G24KT 10/01 A3007 RMK A01 T00960014  RH  056%=      5-min Rain = 0
KDO1 171109Z 36014G19KT 10/01 A3007 RMK A01 T00960014  RH  056%=      5-min Rain = 0
KDO1 171110Z 36017G22KT 10/01 A3007 RMK A01 T00960014  RH  057%=      5-min Rain = 0
KDO1 171111Z 00015KT 10/01 A3007 RMK A01 T00950014  RH  057%=      5-min Rain = 0
KDO1 171112Z 00016G22KT 10/01 A3007 RMK A01 T00950014  RH  057%=      5-min Rain = 0
KDO1 171113Z 00017G22KT 09/01 A3007 RMK A01 T00940014  RH  057%=      5-min Rain = 0
KDO1 171114Z 36017G23KT 09/01 A3006 RMK A01 T00940014  RH  057%=      5-min Rain = 0
KDO1 171115Z 00018KT 09/01 A3007 RMK A01 T00940014  RH  057%=      5-min Rain = 0
KDO1 171116Z 00018KT 09/01 A3007 RMK A01 T00940014  RH  057%=      5-min Rain = 0
KDO1 171117Z 01018KT 10/01 A3007 RMK A01 T00950014  RH  057%=      5-min Rain = 0
KDO1 171118Z 36015G20KT 10/02 A3007 RMK A01 T00950015  RH  057%=      5-min Rain = 0
KDO1 171119Z 00018G23KT 10/02 A3007 RMK A01 T00950015  RH  057%=      5-min Rain = 0
KDO1 171120Z 36015KT 09/02 A3007 RMK A01 T00940015  RH  058%=      5-min Rain = 0
KDO1 171121Z 00013G21KT 09/02 A3007 RMK A01 T00940015  RH  058%=      5-min Rain = 0
KDO1 171122Z 00017G24KT 09/02 A3007 RMK A01 T00930015  RH  058%=      5-min Rain = 0
KDO1 171123Z 36014KT 09/02 A3007 RMK A01 T00930015  RH  058%=      5-min Rain = 0
KDO1 171124Z 00012G17KT 09/02 A3007 RMK A01 T00930015  RH  058%=      5-min Rain = 0
KDO1 171125Z 00016KT 09/02 A3007 RMK A01 T00930015  RH  058%=      5-min Rain = 0
KDO1 171126Z 36013G19KT 09/02 A3007 RMK A01 T00930015  RH  058%=      5-min Rain = 0
KDO1 171127Z 36013G19KT 09/02 A3007 RMK A01 T00930016  RH  058%=      5-min Rain = 0
KDO1 171128Z 36013G18KT 09/02 A3007 RMK A01 T00920016  RH  059%=      5-min Rain = 0
KDO1 171129Z 00017KT 09/02 A3007 RMK A01 T00920015  RH  059%=      5-min Rain = 0
KDO1 171130Z 00015KT 09/02 A3007 RMK A01 T00920016  RH  059%=      5-min Rain = 0
KDO1 171131Z 36015G21KT 09/02 A3007 RMK A01 T00920015  RH  059%=      5-min Rain = 0
KDO1 171132Z 36014KT 09/02 A3008 RMK A01 T00920016  RH  059%=      5-min Rain = 0
KDO1 171133Z 36015KT 09/02 A3008 RMK A01 T00920016  RH  059%=      5-min Rain = 0
KDO1 171134Z 36014G20KT 09/02 A3008 RMK A01 T00910016  RH  059%=      5-min Rain = 0
KDO1 171135Z 36014KT 09/02 A3008 RMK A01 T00910016  RH  059%=      5-min Rain = 0
KDO1 171136Z 35015G21KT 09/02 A3008 RMK A01 T00910016  RH  059%=      5-min Rain = 0
KDO1 171137Z 36012G19KT 09/02 A3008 RMK A01 T00920016  RH  059%=      5-min Rain = 0
KDO1 171138Z 36014G19KT 09/02 A3008 RMK A01 T00910016  RH  060%=      5-min Rain = 0
KDO1 171139Z 36015G20KT 09/02 A3008 RMK A01 T00900017  RH  060%=      5-min Rain = 0
KDO1 171140Z 36016G25KT 09/02 A3008 RMK A01 T00900016  RH  060%=      5-min Rain = 0
KDO1 171141Z 35016KT 09/02 A3008 RMK A01 T00910017  RH  060%=      5-min Rain = 0
KDO1 171142Z 35015G20KT 09/02 A3008 RMK A01 T00910017  RH  060%=      5-min Rain = 0
KDO1 171143Z 35017KT 09/02 A3008 RMK A01 T00910017  RH  060%=      5-min Rain = 0
KDO1 171144Z 36014G19KT 09/02 A3008 RMK A01 T00910017  RH  060%=      5-min Rain = 0
KDO1 171145Z 36017G24KT 09/02 A3008 RMK A01 T00910017  RH  060%=      5-min Rain = 0
KDO1 171146Z 35014G21KT 09/02 A3008 RMK A01 T00910018  RH  060%=      5-min Rain = 0
KDO1 171147Z 36016G22KT 09/02 A3008 RMK A01 T00910018  RH  060%=      5-min Rain = 0
KDO1 171148Z 35016G21KT 09/02 A3008 RMK A01 T00910018  RH  060%=      5-min Rain = 0
KDO1 171149Z 35013KT 09/02 A3008 RMK A01 T00910018  RH  060%=      5-min Rain = 0
KDO1 171150Z 36017KT 09/02 A3008 RMK A01 T00900018  RH  060%=      5-min Rain = 0
KDO1 171151Z 36012G18KT 09/02 A3008 RMK A01 T00900018  RH  061%=      5-min Rain = 0
KDO1 171152Z 36014KT 09/02 A3008 RMK A01 T00900018  RH  061%=      5-min Rain = 0
KDO1 171153Z 35016KT 09/02 A3009 RMK A01 T00900019  RH  061%=      5-min Rain = 0
KDO1 171154Z 35015G21KT 09/02 A3009 RMK A01 T00900018  RH  061%=      5-min Rain = 0
KDO1 171155Z 35020KT 09/02 A3009 RMK A01 T00900018  RH  061%=      5-min Rain = 0
KDO1 171156Z 35017G24KT 09/02 A3009 RMK A01 T00900019  RH  061%=      5-min Rain = 0
KDO1 171157Z 36018G25KT 09/02 A3009 RMK A01 T00910019  RH  061%=      5-min Rain = 0
KDO1 171158Z 36014KT 09/02 A3009 RMK A01 T00910019  RH  061%=      5-min Rain = 0
KDO1 171159Z 36015KT 09/02 A3009 RMK A01 T00900018  RH  061%=      5-min Rain = 0
KDO1 171200Z 36014KT 09/02 A3009 RMK A01 T00900019  RH  061%=      5-min Rain = 0
KDO1 171201Z 36015G21KT 09/02 A3009 RMK A01 T00890019  RH  061%=      5-min Rain = 0
KDO1 171202Z 35015G23KT 09/02 A3009 RMK A01 T00890019  RH  061%=      5-min Rain = 0
KDO1 171203Z 35015KT 09/02 A3009 RMK A01 T00890018  RH  061%=      5-min Rain = 0
KDO1 171204Z 36014G19KT 09/02 A3009 RMK A01 T00890019  RH  061%=      5-min Rain = 0
KDO1 171205Z 00017KT 09/02 A3009 RMK A01 T00890019  RH  062%=      5-min Rain = 0
KDO1 171206Z 36015KT 09/02 A3009 RMK A01 T00880019  RH  062%=      5-min Rain = 0
KDO1 171207Z 35017KT 09/02 A3009 RMK A01 T00890020  RH  062%=      5-min Rain = 0
KDO1 171208Z 00016G21KT 09/02 A3009 RMK A01 T00890019  RH  062%=      5-min Rain = 0
KDO1 171209Z 36018G25KT 09/02 A3009 RMK A01 T00890019  RH  062%=      5-min Rain = 0
KDO1 171210Z 35016G21KT 09/02 A301 RMK A01 T00890020  RH  062%=      5-min Rain = 0
KDO1 171211Z 00016G23KT 09/02 A301 RMK A01 T00900020  RH  062%=      5-min Rain = 0
KDO1 171212Z 00016KT 09/02 A301 RMK A01 T00890020  RH  062%=      5-min Rain = 0
KDO1 171213Z 36014KT 09/02 A301 RMK A01 T00890020  RH  062%=      5-min Rain = 0
KDO1 171214Z 00016G21KT 09/02 A301 RMK A01 T00890020  RH  062%=      5-min Rain = 0
KDO1 171215Z 36015G21KT 09/02 A301 RMK A01 T00890020  RH  062%=      5-min Rain = 0
KDO1 171216Z 00015KT 09/02 A301 RMK A01 T00890020  RH  062%=      5-min Rain = 0
KDO1 171217Z 00017KT 09/02 A301 RMK A01 T00890020  RH  062%=      5-min Rain = 0
KDO1 171218Z 01014G22KT 09/02 A301 RMK A01 T00890020  RH  062%=      5-min Rain = 0
KDO1 171219Z 00015G21KT 09/02 A301 RMK A01 T00890020  RH  062%=      5-min Rain = 0
KDO1 171220Z 00015KT 09/02 A301 RMK A01 T00890021  RH  062%=      5-min Rain = 0
KDO1 171221Z 36018G23KT 09/02 A301 RMK A01 T00890021  RH  062%=      5-min Rain = 0
KDO1 171222Z 36016KT 09/02 A301 RMK A01 T00900021  RH  062%=      5-min Rain = 0
KDO1 171223Z 36015G22KT 09/02 A301 RMK A01 T00900021  RH  062%=      5-min Rain = 0
KDO1 171224Z 00014G19KT 09/02 A3011 RMK A01 T00890020  RH  062%=      5-min Rain = 0
KDO1 171225Z 35018KT 09/02 A3011 RMK A01 T00890020  RH  062%=      5-min Rain = 0
KDO1 171226Z 36016KT 09/02 A3011 RMK A01 T00890020  RH  062%=      5-min Rain = 0
KDO1 171227Z 00015G21KT 09/02 A3011 RMK A01 T00890020  RH  062%=      5-min Rain = 0
KDO1 171228Z 00014KT 09/02 A3011 RMK A01 T00890021  RH  062%=      5-min Rain = 0
KDO1 171229Z 00015G21KT 09/02 A3011 RMK A01 T00890021  RH  062%=      5-min Rain = 0
KDO1 171230Z 36015KT 09/02 A3011 RMK A01 T00880020  RH  062%=      5-min Rain = 0
KDO1 171231Z 00014G20KT 09/02 A3011 RMK A01 T00880020  RH  063%=      5-min Rain = 0
KDO1 171232Z 35017G24KT 09/02 A3011 RMK A01 T00870020  RH  063%=      5-min Rain = 0
KDO1 171233Z 00017G22KT 09/02 A3011 RMK A01 T00880021  RH  063%=      5-min Rain = 0
KDO1 171234Z 36013G19KT 09/02 A3011 RMK A01 T00870020  RH  063%=      5-min Rain = 0
KDO1 171235Z 00014G20KT 09/02 A3011 RMK A01 T00870020  RH  063%=      5-min Rain = 0
KDO1 171236Z 36013KT 09/02 A3011 RMK A01 T00870020  RH  063%=      5-min Rain = 0
KDO1 171237Z 36013KT 09/02 A3011 RMK A01 T00860020  RH  063%=      5-min Rain = 0
KDO1 171238Z 35014KT 09/02 A3011 RMK A01 T00860020  RH  063%=      5-min Rain = 0
KDO1 171239Z 36014KT 09/02 A3011 RMK A01 T00860020  RH  064%=      5-min Rain = 0
KDO1 171240Z 35015KT 09/02 A3011 RMK A01 T00850020  RH  064%=      5-min Rain = 0
KDO1 171241Z 36014KT 09/02 A3011 RMK A01 T00850020  RH  064%=      5-min Rain = 0
KDO1 171242Z 35013G21KT 08/02 A3011 RMK A01 T00840020  RH  064%=      5-min Rain = 0
KDO1 171243Z 36016KT 08/02 A3011 RMK A01 T00840020  RH  064%=      5-min Rain = 0
KDO1 171244Z 36013KT 08/02 A3011 RMK A01 T00840020  RH  064%=      5-min Rain = 0
KDO1 171245Z 36015KT 08/02 A3011 RMK A01 T00840020  RH  064%=      5-min Rain = 0
KDO1 171246Z 00012G17KT 08/02 A3011 RMK A01 T00840020  RH  064%=      5-min Rain = 0
KDO1 171247Z 36012KT 08/02 A3011 RMK A01 T00830020  RH  064%=      5-min Rain = 0
KDO1 171248Z 35011G16KT 08/02 A3011 RMK A01 T00830020  RH  064%=      5-min Rain = 0
KDO1 171249Z 36015KT 08/02 A3011 RMK A01 T00830020  RH  065%=      5-min Rain = 0
KDO1 171250Z 36014KT 08/02 A3011 RMK A01 T00830020  RH  065%=      5-min Rain = 0
KDO1 171251Z 35015KT 08/02 A3012 RMK A01 T00830020  RH  065%=      5-min Rain = 0
KDO1 171252Z 36015KT 08/02 A3012 RMK A01 T00830020  RH  065%=      5-min Rain = 0
KDO1 171253Z 36015G20KT 08/02 A3012 RMK A01 T00830020  RH  065%=      5-min Rain = 0
KDO1 171254Z 36017KT 08/02 A3012 RMK A01 T00830020  RH  065%=      5-min Rain = 0
KDO1 171255Z 36013G20KT 08/02 A3012 RMK A01 T00830020  RH  065%=      5-min Rain = 0
KDO1 171256Z 36013KT 08/02 A3012 RMK A01 T00830020  RH  065%=      5-min Rain = 0
KDO1 171257Z 35014KT 08/02 A3012 RMK A01 T00820020  RH  065%=      5-min Rain = 0
KDO1 171258Z 35013KT 08/02 A3012 RMK A01 T00820020  RH  065%=      5-min Rain = 0
KDO1 171259Z 35014KT 08/02 A3012 RMK A01 T00810020  RH  065%=      5-min Rain = 0
KDO1 171300Z 35016KT 08/02 A3012 RMK A01 T00810020  RH  065%=      5-min Rain = 0
KDO1 171301Z 35016G21KT 08/02 A3012 RMK A01 T00810020  RH  065%=      5-min Rain = 0
KDO1 171302Z 35014G19KT 08/02 A3012 RMK A01 T00810020  RH  065%=      5-min Rain = 0
KDO1 171303Z 36013G19KT 08/02 A3012 RMK A01 T00810019  RH  065%=      5-min Rain = 0
KDO1 171304Z 36018G23KT 08/02 A3012 RMK A01 T00810020  RH  065%=      5-min Rain = 0
KDO1 171305Z 36013G19KT 08/02 A3012 RMK A01 T00810020  RH  065%=      5-min Rain = 0
KDO1 171306Z 35017G24KT 08/02 A3012 RMK A01 T00810019  RH  065%=      5-min Rain = 0
KDO1 171307Z 00015G20KT 08/02 A3012 RMK A01 T00810020  RH  065%=      5-min Rain = 0
KDO1 171308Z 36011G16KT 08/02 A3012 RMK A01 T00810019  RH  065%=      5-min Rain = 0
KDO1 171309Z 00013KT 08/02 A3012 RMK A01 T00800019  RH  065%=      5-min Rain = 0
KDO1 171310Z 36012G17KT 08/02 A3012 RMK A01 T00800019  RH  065%=      5-min Rain = 0
KDO1 171311Z 36019G24KT 08/02 A3012 RMK A01 T00790019  RH  066%=      5-min Rain = 0
KDO1 171312Z 36013G18KT 08/02 A3012 RMK A01 T00790019  RH  066%=      5-min Rain = 0
KDO1 171313Z 36014G19KT 08/02 A3013 RMK A01 T00790019  RH  066%=      5-min Rain = 0
KDO1 171314Z 36014KT 08/02 A3013 RMK A01 T00790019  RH  066%=      5-min Rain = 0
KDO1 171315Z 35015G20KT 08/02 A3013 RMK A01 T00790019  RH  066%=      5-min Rain = 0
KDO1 171316Z 35014KT 08/02 A3013 RMK A01 T00790019  RH  066%=      5-min Rain = 0
KDO1 171317Z 36013G18KT 08/02 A3013 RMK A01 T00790019  RH  066%=      5-min Rain = 0
KDO1 171318Z 35012KT 08/02 A3013 RMK A01 T00780019  RH  066%=      5-min Rain = 0
KDO1 171319Z 35014KT 08/02 A3013 RMK A01 T00780019  RH  066%=      5-min Rain = 0
KDO1 171320Z 35010G16KT 08/02 A3013 RMK A01 T00780019  RH  066%=      5-min Rain = 0
KDO1 171321Z 36014G19KT 08/02 A3013 RMK A01 T00780019  RH  066%=      5-min Rain = 0
KDO1 171322Z 35013G18KT 08/02 A3013 RMK A01 T00770018  RH  066%=      5-min Rain = 0
KDO1 171323Z 36015G23KT 08/02 A3013 RMK A01 T00780019  RH  066%=      5-min Rain = 0
KDO1 171324Z 00013G22KT 08/02 A3013 RMK A01 T00780018  RH  066%=      5-min Rain = 0
KDO1 171325Z 36011KT 08/02 A3013 RMK A01 T00780018  RH  066%=      5-min Rain = 0
KDO1 171326Z 35013KT 08/02 A3013 RMK A01 T00770018  RH  066%=      5-min Rain = 0
KDO1 171327Z 00012KT 08/02 A3013 RMK A01 T00770018  RH  066%=      5-min Rain = 0
KDO1 171328Z 36013KT 08/02 A3013 RMK A01 T00770018  RH  066%=      5-min Rain = 0
KDO1 171329Z 36012G17KT 08/02 A3013 RMK A01 T00770018  RH  066%=      5-min Rain = 0
KDO1 171330Z 00013G19KT 08/02 A3013 RMK A01 T00770018  RH  066%=      5-min Rain = 0
KDO1 171331Z 35013KT 08/02 A3013 RMK A01 T00770018  RH  066%=      5-min Rain = 0
KDO1 171332Z 35015G21KT 08/02 A3013 RMK A01 T00770018  RH  066%=      5-min Rain = 0
KDO1 171333Z 35015G22KT 08/02 A3013 RMK A01 T00780018  RH  066%=      5-min Rain = 0
KDO1 171334Z 36014G19KT 08/02 A3013 RMK A01 T00790018  RH  066%=      5-min Rain = 0
KDO1 171335Z 36013KT 08/02 A3013 RMK A01 T00790018  RH  066%=      5-min Rain = 0
KDO1 171336Z 36009KT 08/02 A3014 RMK A01 T00790018  RH  066%=      5-min Rain = 0
KDO1 171337Z 36012G20KT 08/02 A3014 RMK A01 T00780018  RH  066%=      5-min Rain = 0
KDO1 171338Z 36014KT 08/02 A3014 RMK A01 T00780018  RH  066%=      5-min Rain = 0
KDO1 171339Z 35011KT 08/02 A3014 RMK A01 T00780018  RH  066%=      5-min Rain = 0
KDO1 171340Z 35012G18KT 08/02 A3014 RMK A01 T00780018  RH  066%=      5-min Rain = 0
KDO1 171341Z 36018KT 08/02 A3014 RMK A01 T00780018  RH  066%=      5-min Rain = 0
KDO1 171342Z 36010G15KT 08/02 A3014 RMK A01 T00790018  RH  066%=      5-min Rain = 0
KDO1 171343Z 36014G20KT 08/02 A3014 RMK A01 T00790018  RH  065%=      5-min Rain = 0
KDO1 171344Z 36012KT 08/02 A3014 RMK A01 T00790018  RH  065%=      5-min Rain = 0
KDO1 171345Z 36013G18KT 08/02 A3014 RMK A01 T00790018  RH  065%=      5-min Rain = 0
KDO1 171346Z 36011KT 08/02 A3014 RMK A01 T00790018  RH  065%=      5-min Rain = 0
KDO1 171347Z 00015G22KT 08/02 A3014 RMK A01 T00790018  RH  065%=      5-min Rain = 0
KDO1 171348Z 35012KT 08/02 A3014 RMK A01 T00800018  RH  065%=      5-min Rain = 0
KDO1 171349Z 36013KT 08/02 A3014 RMK A01 T00800018  RH  065%=      5-min Rain = 0
KDO1 171350Z 35013G18KT 08/02 A3014 RMK A01 T00800018  RH  065%=      5-min Rain = 0
KDO1 171351Z 36015G23KT 08/02 A3014 RMK A01 T00800018  RH  065%=      5-min Rain = 0
KDO1 171352Z 00013G19KT 08/02 A3014 RMK A01 T00800018  RH  065%=      5-min Rain = 0
KDO1 171353Z 36017KT 08/02 A3015 RMK A01 T00800018  RH  065%=      5-min Rain = 0
KDO1 171354Z 36013KT 08/02 A3014 RMK A01 T00810018  RH  065%=      5-min Rain = 0
KDO1 171355Z 35015KT 08/02 A3014 RMK A01 T00810018  RH  065%=      5-min Rain = 0
KDO1 171356Z 00013G19KT 08/02 A3015 RMK A01 T00810018  RH  064%=      5-min Rain = 0
KDO1 171357Z 00016KT 08/02 A3015 RMK A01 T00810018  RH  064%=      5-min Rain = 0
KDO1 171358Z 35014KT 08/02 A3015 RMK A01 T00820018  RH  064%=      5-min Rain = 0
KDO1 171359Z 36013KT 08/02 A3015 RMK A01 T00820018  RH  064%=      5-min Rain = 0
KDO1 171400Z 36015KT 08/02 A3015 RMK A01 T00820018  RH  064%=      5-min Rain = 0
KDO1 171401Z 36013G19KT 08/02 A3015 RMK A01 T00820018  RH  064%=      5-min Rain = 0
KDO1 171402Z 35013KT 08/02 A3015 RMK A01 T00830018  RH  064%=      5-min Rain = 0
KDO1 171403Z 35014G19KT 08/02 A3015 RMK A01 T00830019  RH  064%=      5-min Rain = 0
KDO1 171404Z 36015G21KT 08/02 A3015 RMK A01 T00830018  RH  064%=      5-min Rain = 0
KDO1 171405Z 35013KT 08/02 A3015 RMK A01 T00840018  RH  064%=      5-min Rain = 0
KDO1 171406Z 36012G18KT 08/02 A3015 RMK A01 T00840018  RH  063%=      5-min Rain = 0
KDO1 171407Z 36014KT 08/02 A3015 RMK A01 T00840018  RH  063%=      5-min Rain = 0
KDO1 171408Z 36014KT 08/02 A3015 RMK A01 T00840018  RH  063%=      5-min Rain = 0
KDO1 171409Z 36012KT 09/02 A3015 RMK A01 T00850019  RH  063%=      5-min Rain = 0
KDO1 171410Z 36015KT 09/02 A3015 RMK A01 T00850019  RH  063%=      5-min Rain = 0
KDO1 171411Z 36010KT 09/02 A3015 RMK A01 T00850019  RH  063%=      5-min Rain = 0
KDO1 171412Z 35010G15KT 09/02 A3015 RMK A01 T00850019  RH  063%=      5-min Rain = 0
KDO1 171413Z 36013KT 09/02 A3016 RMK A01 T00860019  RH  063%=      5-min Rain = 0
KDO1 171414Z 35010KT 09/02 A3016 RMK A01 T00860019  RH  063%=      5-min Rain = 0
KDO1 171415Z 35014KT 09/02 A3016 RMK A01 T00870019  RH  062%=      5-min Rain = 0
KDO1 171416Z 35013KT 09/02 A3016 RMK A01 T00870019  RH  062%=      5-min Rain = 0
KDO1 171417Z 35013KT 09/02 A3016 RMK A01 T00880019  RH  062%=      5-min Rain = 0
KDO1 171418Z 36015KT 09/02 A3016 RMK A01 T00880019  RH  062%=      5-min Rain = 0
KDO1 171419Z 01015KT 09/02 A3016 RMK A01 T00880019  RH  062%=      5-min Rain = 0
KDO1 171420Z 36017KT 09/02 A3016 RMK A01 T00880019  RH  062%=      5-min Rain = 0
KDO1 171421Z 00013KT 09/02 A3016 RMK A01 T00890019  RH  062%=      5-min Rain = 0
KDO1 171422Z 36013G18KT 09/02 A3016 RMK A01 T00890019  RH  062%=      5-min Rain = 0
KDO1 171423Z 36014KT 09/02 A3016 RMK A01 T00900019  RH  061%=      5-min Rain = 0
KDO1 171424Z 36014G20KT 09/02 A3016 RMK A01 T00900019  RH  061%=      5-min Rain = 0
KDO1 171425Z 36012KT 09/02 A3016 RMK A01 T00900019  RH  061%=      5-min Rain = 0
KDO1 171426Z 36013KT 09/02 A3016 RMK A01 T00910019  RH  061%=      5-min Rain = 0
KDO1 171427Z 35011KT 09/02 A3016 RMK A01 T00910020  RH  061%=      5-min Rain = 0
KDO1 171428Z 36015G24KT 09/02 A3016 RMK A01 T00920020  RH  061%=      5-min Rain = 0
KDO1 171429Z 00016G21KT 09/02 A3016 RMK A01 T00920020  RH  060%=      5-min Rain = 0
KDO1 171430Z 36013G18KT 09/02 A3016 RMK A01 T00930020  RH  060%=      5-min Rain = 0
KDO1 171431Z 36012KT 09/02 A3016 RMK A01 T00930020  RH  060%=      5-min Rain = 0
KDO1 171432Z 00015KT 09/02 A3016 RMK A01 T00930020  RH  060%=      5-min Rain = 0
KDO1 171433Z 00014G19KT 09/02 A3016 RMK A01 T00940020  RH  060%=      5-min Rain = 0
KDO1 171434Z 36012KT 09/02 A3016 RMK A01 T00940020  RH  060%=      5-min Rain = 0
KDO1 171435Z 36013KT 10/02 A3016 RMK A01 T00950020  RH  060%=      5-min Rain = 0
KDO1 171436Z 36016KT 10/02 A3016 RMK A01 T00950020  RH  060%=      5-min Rain = 0
KDO1 171437Z 36013G18KT 10/02 A3016 RMK A01 T00950020  RH  059%=      5-min Rain = 0
KDO1 171438Z 00017G23KT 10/02 A3016 RMK A01 T00950020  RH  059%=      5-min Rain = 0
KDO1 171439Z 36015KT 10/02 A3016 RMK A01 T00960020  RH  059%=      5-min Rain = 0
KDO1 171440Z 00014KT 10/02 A3016 RMK A01 T00960020  RH  059%=      5-min Rain = 0
KDO1 171441Z 36010KT 10/02 A3016 RMK A01 T00960020  RH  059%=      5-min Rain = 0
KDO1 171442Z 36011KT 10/02 A3016 RMK A01 T00970021  RH  059%=      5-min Rain = 0
KDO1 171443Z 35014KT 10/02 A3016 RMK A01 T00980021  RH  059%=      5-min Rain = 0
KDO1 171444Z 35015KT 10/02 A3016 RMK A01 T00980020  RH  059%=      5-min Rain = 0
KDO1 171445Z 00014KT 10/02 A3016 RMK A01 T00980020  RH  059%=      5-min Rain = 0
KDO1 171446Z 36016KT 10/02 A3016 RMK A01 T00980021  RH  059%=      5-min Rain = 0
KDO1 171447Z 36013KT 10/02 A3016 RMK A01 T00980020  RH  059%=      5-min Rain = 0
KDO1 171448Z 35014G19KT 10/02 A3016 RMK A01 T00980021  RH  059%=      5-min Rain = 0
KDO1 171449Z 36015KT 10/02 A3016 RMK A01 T00980021  RH  058%=      5-min Rain = 0
KDO1 171450Z 36015KT 10/02 A3016 RMK A01 T00990021  RH  058%=      5-min Rain = 0
KDO1 171451Z 35016G21KT 10/02 A3016 RMK A01 T00990021  RH  058%=      5-min Rain = 0
KDO1 171452Z 35011KT 10/02 A3016 RMK A01 T01000021  RH  058%=      5-min Rain = 0
KDO1 171453Z 36012KT 10/02 A3016 RMK A01 T01000022  RH  058%=      5-min Rain = 0
KDO1 171454Z 36014G20KT 10/02 A3016 RMK A01 T01010022  RH  058%=      5-min Rain = 0
KDO1 171455Z 35015G21KT 10/02 A3016 RMK A01 T01020022  RH  058%=      5-min Rain = 0
KDO1 171456Z 35014KT 10/02 A3016 RMK A01 T01020022  RH  057%=      5-min Rain = 0
KDO1 171457Z 35016KT 10/02 A3016 RMK A01 T01020022  RH  058%=      5-min Rain = 0
KDO1 171458Z 00014G19KT 10/02 A3016 RMK A01 T01020021  RH  057%=      5-min Rain = 0
KDO1 171459Z 00013KT 10/02 A3016 RMK A01 T01020021  RH  057%=      5-min Rain = 0
KDO1 171500Z 00014G19KT 10/02 A3016 RMK A01 T01020021  RH  057%=      5-min Rain = 0
KDO1 171501Z 36013KT 10/02 A3016 RMK A01 T01020022  RH  057%=      5-min Rain = 0
KDO1 171502Z 00013G19KT 10/02 A3016 RMK A01 T01040022  RH  057%=      5-min Rain = 0
KDO1 171503Z 36011G16KT 10/02 A3016 RMK A01 T01040022  RH  057%=      5-min Rain = 0
KDO1 171504Z 01010G18KT 10/02 A3016 RMK A01 T01040023  RH  057%=      5-min Rain = 0
KDO1 171505Z 00016KT 11/02 A3016 RMK A01 T01060022  RH  056%=      5-min Rain = 0
KDO1 171506Z 36014KT 11/02 A3016 RMK A01 T01050022  RH  056%=      5-min Rain = 0
KDO1 171507Z 00012KT 10/02 A3016 RMK A01 T01040022  RH  057%=      5-min Rain = 0
KDO1 171508Z 00017G22KT 11/02 A3016 RMK A01 T01050022  RH  056%=      5-min Rain = 0
KDO1 171509Z 00015G22KT 11/02 A3016 RMK A01 T01050022  RH  056%=      5-min Rain = 0
KDO1 171510Z 36015G20KT 10/02 A3016 RMK A01 T01040022  RH  057%=      5-min Rain = 0
KDO1 171511Z 36012G18KT 11/02 A3016 RMK A01 T01050022  RH  057%=      5-min Rain = 0
KDO1 171512Z 00013G19KT 11/02 A3016 RMK A01 T01050022  RH  057%=      5-min Rain = 0
KDO1 171513Z 00019KT 11/02 A3016 RMK A01 T01060022  RH  056%=      5-min Rain = 0
KDO1 171514Z 01016KT 11/02 A3016 RMK A01 T01060022  RH  056%=      5-min Rain = 0
KDO1 171515Z 01015KT 11/02 A3016 RMK A01 T01060022  RH  056%=      5-min Rain = 0
KDO1 171516Z 01014KT 11/02 A3016 RMK A01 T01060022  RH  056%=      5-min Rain = 0
KDO1 171517Z 02013G18KT 11/02 A3016 RMK A01 T01070023  RH  056%=      5-min Rain = 0
KDO1 171518Z 00011KT 11/02 A3016 RMK A01 T01070023  RH  056%=      5-min Rain = 0
KDO1 171519Z 36013G18KT 11/02 A3016 RMK A01 T01090023  RH  056%=      5-min Rain = 0
KDO1 171520Z 36016G23KT 11/02 A3016 RMK A01 T01090023  RH  055%=      5-min Rain = 0
KDO1 171521Z 00016G22KT 11/02 A3016 RMK A01 T01090022  RH  055%=      5-min Rain = 0
KDO1 171522Z 01016G22KT 11/02 A3016 RMK A01 T01080023  RH  056%=      5-min Rain = 0
KDO1 171523Z 00015G21KT 11/02 A3016 RMK A01 T01080022  RH  055%=      5-min Rain = 0
KDO1 171524Z 00015G21KT 11/02 A3016 RMK A01 T01070023  RH  056%=      5-min Rain = 0
KDO1 171525Z 01016KT 11/02 A3016 RMK A01 T01080023  RH  056%=      5-min Rain = 0
KDO1 171526Z 02019G24KT 11/02 A3016 RMK A01 T01090022  RH  055%=      5-min Rain = 0
KDO1 171527Z 01017G23KT 11/02 A3016 RMK A01 T01080022  RH  055%=      5-min Rain = 0
KDO1 171528Z 01017G23KT 11/02 A3016 RMK A01 T01070022  RH  056%=      5-min Rain = 0
KDO1 171529Z 02013KT 11/02 A3016 RMK A01 T01080023  RH  055%=      5-min Rain = 0
KDO1 171530Z 01014G21KT 11/02 A3016 RMK A01 T01090023  RH  055%=      5-min Rain = 0
KDO1 171531Z 01018KT 11/02 A3016 RMK A01 T01110023  RH  055%=      5-min Rain = 0
KDO1 171532Z 02014KT 11/02 A3016 RMK A01 T01110023  RH  055%=      5-min Rain = 0
KDO1 171533Z 01013KT 11/02 A3016 RMK A01 T01110023  RH  054%=      5-min Rain = 0
KDO1 171534Z 00017G22KT 11/02 A3016 RMK A01 T01120023  RH  054%=      5-min Rain = 0
KDO1 171535Z 01013G19KT 11/02 A3016 RMK A01 T01120023  RH  054%=      5-min Rain = 0
KDO1 171536Z 01014KT 11/02 A3016 RMK A01 T01120023  RH  054%=      5-min Rain = 0
KDO1 171537Z 00013G18KT 11/02 A3016 RMK A01 T01120023  RH  054%=      5-min Rain = 0
KDO1 171538Z 01017KT 11/02 A3016 RMK A01 T01130023  RH  054%=      5-min Rain = 0
KDO1 171539Z 01018G23KT 11/02 A3016 RMK A01 T01130023  RH  054%=      5-min Rain = 0
KDO1 171540Z 01014G19KT 11/02 A3016 RMK A01 T01120023  RH  054%=      5-min Rain = 0
KDO1 171541Z 01013G18KT 11/02 A3016 RMK A01 T01120023  RH  054%=      5-min Rain = 0
KDO1 171542Z 36013G20KT 11/02 A3016 RMK A01 T01120023  RH  054%=      5-min Rain = 0
KDO1 171543Z 02012KT 11/02 A3016 RMK A01 T01140024  RH  054%=      5-min Rain = 0
KDO1 171544Z 01015KT 11/02 A3017 RMK A01 T01140023  RH  054%=      5-min Rain = 0
KDO1 171545Z 01013G18KT 11/02 A3016 RMK A01 T01140024  RH  054%=      5-min Rain = 0
KDO1 171546Z 00017G22KT 11/02 A3017 RMK A01 T01140023  RH  054%=      5-min Rain = 0
KDO1 171547Z 01014KT 11/02 A3017 RMK A01 T01140023  RH  054%=      5-min Rain = 0
KDO1 171548Z 00013G18KT 11/02 A3016 RMK A01 T01140024  RH  054%=      5-min Rain = 0
KDO1 171549Z 02014KT 12/02 A3017 RMK A01 T01150024  RH  054%=      5-min Rain = 0
KDO1 171550Z 01013KT 12/02 A3017 RMK A01 T01160024  RH  053%=      5-min Rain = 0
KDO1 171551Z 01011KT 12/02 A3016 RMK A01 T01160024  RH  053%=      5-min Rain = 0
KDO1 171552Z 01012G18KT 12/03 A3016 RMK A01 T01170025  RH  053%=      5-min Rain = 0
KDO1 171553Z 01014KT 12/03 A3016 RMK A01 T01190025  RH  053%=      5-min Rain = 0
KDO1 171554Z 00015KT 12/02 A3016 RMK A01 T01180024  RH  053%=      5-min Rain = 0
KDO1 171555Z 01014KT 12/02 A3016 RMK A01 T01170024  RH  053%=      5-min Rain = 0
KDO1 171556Z 00016G21KT 12/02 A3016 RMK A01 T01170024  RH  053%=      5-min Rain = 0
KDO1 171557Z 01015KT 12/02 A3016 RMK A01 T01170024  RH  053%=      5-min Rain = 0
KDO1 171558Z 01016KT 12/03 A3016 RMK A01 T01170025  RH  053%=      5-min Rain = 0
KDO1 171559Z 02015KT 12/03 A3016 RMK A01 T01170025  RH  053%=      5-min Rain = 0
KDO1 171600Z 02015KT 12/02 A3016 RMK A01 T01170024  RH  053%=      5-min Rain = 0
KDO1 171601Z 01013G18KT 12/03 A3016 RMK A01 T01180025  RH  053%=      5-min Rain = 0
KDO1 171602Z 01014G19KT 12/03 A3016 RMK A01 T01200025  RH  052%=      5-min Rain = 0
KDO1 171603Z 02008KT 12/03 A3016 RMK A01 T01210026  RH  052%=      5-min Rain = 0
KDO1 171604Z 01011G16KT 12/03 A3016 RMK A01 T01230027  RH  052%=      5-min Rain = 0
KDO1 171605Z 36015G21KT 12/03 A3016 RMK A01 T01240026  RH  051%=      5-min Rain = 0
KDO1 171606Z 00014G19KT 12/03 A3016 RMK A01 T01230025  RH  051%=      5-min Rain = 0
KDO1 171607Z 01016KT 12/03 A3016 RMK A01 T01210025  RH  052%=      5-min Rain = 0
KDO1 171608Z 00014G19KT 12/03 A3016 RMK A01 T01200025  RH  052%=      5-min Rain = 0
KDO1 171609Z 01013KT 12/03 A3016 RMK A01 T01200025  RH  052%=      5-min Rain = 0
KDO1 171610Z 01012G18KT 12/03 A3016 RMK A01 T01220026  RH  052%=      5-min Rain = 0
KDO1 171611Z 01016KT 12/03 A3016 RMK A01 T01230026  RH  051%=      5-min Rain = 0
KDO1 171612Z 00014KT 12/03 A3016 RMK A01 T01220025  RH  051%=      5-min Rain = 0
KDO1 171613Z 00014G19KT 12/03 A3016 RMK A01 T01220026  RH  052%=      5-min Rain = 0
KDO1 171614Z 00016KT 12/03 A3016 RMK A01 T01230025  RH  051%=      5-min Rain = 0
KDO1 171615Z 01013KT 12/03 A3016 RMK A01 T01220025  RH  051%=      5-min Rain = 0
KDO1 171616Z 02014KT 12/03 A3016 RMK A01 T01220026  RH  052%=      5-min Rain = 0
KDO1 171617Z 02014G19KT 12/03 A3016 RMK A01 T01230026  RH  051%=      5-min Rain = 0
KDO1 171618Z 02015KT 12/03 A3016 RMK A01 T01240026  RH  051%=      5-min Rain = 0
KDO1 171619Z 01012G18KT 12/03 A3016 RMK A01 T01240026  RH  051%=      5-min Rain = 0
KDO1 171620Z 01011G18KT 13/03 A3016 RMK A01 T01250027  RH  051%=      5-min Rain = 0
KDO1 171621Z 01015KT 13/03 A3016 RMK A01 T01260026  RH  051%=      5-min Rain = 0
KDO1 171622Z 02015KT 13/03 A3016 RMK A01 T01250026  RH  051%=      5-min Rain = 0
KDO1 171623Z 02014G19KT 12/03 A3016 RMK A01 T01240025  RH  051%=      5-min Rain = 0
KDO1 171624Z 02012KT 12/03 A3016 RMK A01 T01240026  RH  051%=      5-min Rain = 0
KDO1 171625Z 02015KT 13/03 A3016 RMK A01 T01250027  RH  051%=      5-min Rain = 0
KDO1 171626Z 02013G19KT 13/03 A3016 RMK A01 T01250026  RH  051%=      5-min Rain = 0
KDO1 171627Z 02013KT 13/03 A3016 RMK A01 T01260026  RH  051%=      5-min Rain = 0
KDO1 171628Z 02012G18KT 13/03 A3017 RMK A01 T01260026  RH  051%=      5-min Rain = 0
KDO1 171629Z 01013KT 13/03 A3017 RMK A01 T01260026  RH  050%=      5-min Rain = 0
KDO1 171630Z 01012KT 13/03 A3016 RMK A01 T01250026  RH  051%=      5-min Rain = 0
KDO1 171631Z 00016KT 13/03 A3017 RMK A01 T01250026  RH  051%=      5-min Rain = 0
KDO1 171632Z 36014KT 13/03 A3017 RMK A01 T01250026  RH  051%=      5-min Rain = 0
KDO1 171633Z 36014KT 13/03 A3016 RMK A01 T01250026  RH  051%=      5-min Rain = 0
KDO1 171634Z 00013G20KT 13/03 A3017 RMK A01 T01260027  RH  051%=      5-min Rain = 0
KDO1 171635Z 01014KT 13/03 A3017 RMK A01 T01280026  RH  050%=      5-min Rain = 0
KDO1 171636Z 03013KT 13/03 A3017 RMK A01 T01270026  RH  050%=      5-min Rain = 0
KDO1 171637Z 03012KT 13/03 A3017 RMK A01 T01270027  RH  050%=      5-min Rain = 0
KDO1 171638Z 01012KT 13/03 A3017 RMK A01 T01290028  RH  050%=      5-min Rain = 0
KDO1 171639Z 02013G18KT 13/03 A3017 RMK A01 T01300027  RH  050%=      5-min Rain = 0
KDO1 171640Z 01014KT 13/03 A3017 RMK A01 T01280026  RH  050%=      5-min Rain = 0
KDO1 171641Z 01013KT 13/03 A3017 RMK A01 T01280027  RH  050%=      5-min Rain = 0
KDO1 171642Z 02013KT 13/03 A3017 RMK A01 T01290026  RH  050%=      5-min Rain = 0
KDO1 171643Z 01013KT 13/03 A3017 RMK A01 T01290026  RH  050%=      5-min Rain = 0
KDO1 171644Z 01014KT 13/03 A3017 RMK A01 T01280026  RH  050%=      5-min Rain = 0
KDO1 171645Z 01013KT 13/03 A3017 RMK A01 T01280027  RH  050%=      5-min Rain = 0
KDO1 171646Z 01013KT 13/03 A3017 RMK A01 T01280026  RH  050%=      5-min Rain = 0
KDO1 171647Z 36013KT 13/03 A3016 RMK A01 T01290026  RH  050%=      5-min Rain = 0
KDO1 171648Z 01013KT 13/03 A3017 RMK A01 T01300028  RH  050%=      5-min Rain = 0
KDO1 171649Z 01012KT 13/03 A3016 RMK A01 T01330028  RH  049%=      5-min Rain = 0
KDO1 171650Z 01015G21KT 13/03 A3017 RMK A01 T01340027  RH  048%=      5-min Rain = 0
KDO1 171651Z 00013G20KT 13/03 A3017 RMK A01 T01320026  RH  049%=      5-min Rain = 0
KDO1 171652Z 35012KT 13/03 A3017 RMK A01 T01320027  RH  049%=      5-min Rain = 0
KDO1 171653Z 36012KT 13/03 A3016 RMK A01 T01330027  RH  049%=      5-min Rain = 0
KDO1 171654Z 01016KT 14/03 A3017 RMK A01 T01350027  RH  048%=      5-min Rain = 0
KDO1 171655Z 01014KT 13/03 A3017 RMK A01 T01340026  RH  048%=      5-min Rain = 0
KDO1 171656Z 00012G17KT 13/03 A3017 RMK A01 T01330027  RH  049%=      5-min Rain = 0
KDO1 171657Z 01011G16KT 13/03 A3017 RMK A01 T01330026  RH  048%=      5-min Rain = 0
KDO1 171658Z 02015G20KT 13/03 A3017 RMK A01 T01330026  RH  048%=      5-min Rain = 0
KDO1 171659Z 01011KT 13/03 A3017 RMK A01 T01340027  RH  048%=      5-min Rain = 0
KDO1 171700Z 02011KT 14/03 A3017 RMK A01 T01360027  RH  048%=      5-min Rain = 0
KDO1 171701Z 01011KT 14/03 A3017 RMK A01 T01360027  RH  048%=      5-min Rain = 0
KDO1 171702Z 02015G20KT 14/03 A3017 RMK A01 T01350027  RH  048%=      5-min Rain = 0
KDO1 171703Z 01010KT 13/03 A3017 RMK A01 T01340027  RH  048%=      5-min Rain = 0
KDO1 171704Z 00012G17KT 13/03 A3017 RMK A01 T01340027  RH  048%=      5-min Rain = 0
KDO1 171705Z 00013KT 14/03 A3017 RMK A01 T01350026  RH  048%=      5-min Rain = 0
KDO1 171706Z 01010KT 13/03 A3017 RMK A01 T01340026  RH  048%=      5-min Rain = 0
KDO1 171707Z 00012G17KT 13/03 A3017 RMK A01 T01340027  RH  048%=      5-min Rain = 0
KDO1 171708Z 00015KT 14/03 A3017 RMK A01 T01350026  RH  048%=      5-min Rain = 0
KDO1 171709Z 01013G18KT 14/03 A3017 RMK A01 T01350026  RH  048%=      5-min Rain = 0
KDO1 171710Z 01014KT 13/03 A3017 RMK A01 T01340025  RH  048%=      5-min Rain = 0
KDO1 171711Z 01011KT 13/03 A3017 RMK A01 T01340026  RH  048%=      5-min Rain = 0
KDO1 171712Z 02010KT 13/03 A3017 RMK A01 T01340025  RH  048%=      5-min Rain = 0
KDO1 171713Z 02012KT 14/03 A3017 RMK A01 T01350026  RH  048%=      5-min Rain = 0
KDO1 171714Z 01012KT 14/03 A3017 RMK A01 T01360026  RH  047%=      5-min Rain = 0
KDO1 171715Z 00010G16KT 14/03 A3017 RMK A01 T01370026  RH  047%=      5-min Rain = 0
KDO1 171716Z 00011G16KT 14/03 A3017 RMK A01 T01370027  RH  047%=      5-min Rain = 0
KDO1 171717Z 01011KT 14/03 A3017 RMK A01 T01380027  RH  047%=      5-min Rain = 0
KDO1 171718Z 02013G19KT 14/03 A3017 RMK A01 T01390026  RH  046%=      5-min Rain = 0
KDO1 171719Z 02012G18KT 14/02 A3017 RMK A01 T01380024  RH  046%=      5-min Rain = 0
KDO1 171720Z 01009KT 14/03 A3017 RMK A01 T01380026  RH  047%=      5-min Rain = 0
KDO1 171721Z 36012KT 14/03 A3017 RMK A01 T01390025  RH  046%=      5-min Rain = 0
KDO1 171722Z 35012G17KT 14/02 A3017 RMK A01 T01380024  RH  046%=      5-min Rain = 0
KDO1 171723Z 35013KT 14/02 A3017 RMK A01 T01370024  RH  047%=      5-min Rain = 0
KDO1 171724Z 36011KT 14/03 A3017 RMK A01 T01380026  RH  047%=      5-min Rain = 0
KDO1 171725Z 02009KT 14/03 A3017 RMK A01 T01420026  RH  046%=      5-min Rain = 0
KDO1 171726Z 03009KT 14/03 A3017 RMK A01 T01440026  RH  045%=      5-min Rain = 0
KDO1 171727Z 02013KT 14/03 A3017 RMK A01 T01440025  RH  045%=      5-min Rain = 0
KDO1 171728Z 02010KT 14/03 A3017 RMK A01 T01430025  RH  045%=      5-min Rain = 0
KDO1 171729Z 03009G14KT 14/03 A3017 RMK A01 T01420025  RH  045%=      5-min Rain = 0
KDO1 171730Z 02009KT 14/03 A3017 RMK A01 T01440025  RH  045%=      5-min Rain = 0
KDO1 171731Z 01012KT 15/02 A3017 RMK A01 T01450023  RH  044%=      5-min Rain = 0
KDO1 171732Z 01011KT 14/02 A3017 RMK A01 T01420020  RH  044%=      5-min Rain = 0
KDO1 171733Z 01008G13KT 14/02 A3017 RMK A01 T01410021  RH  044%=      5-min Rain = 0
KDO1 171734Z 00014KT 14/02 A3017 RMK A01 T01420022  RH  044%=      5-min Rain = 0
KDO1 171735Z 01014KT 14/02 A3017 RMK A01 T01420020  RH  044%=      5-min Rain = 0
KDO1 171736Z 36013KT 14/02 A3017 RMK A01 T01410020  RH  044%=      5-min Rain = 0
KDO1 171737Z 00013KT 14/02 A3017 RMK A01 T01400020  RH  044%=      5-min Rain = 0
KDO1 171738Z 01012KT 14/02 A3017 RMK A01 T01390019  RH  044%=      5-min Rain = 0
KDO1 171739Z 01010G15KT 14/02 A3017 RMK A01 T01390020  RH  044%=      5-min Rain = 0
KDO1 171740Z 01010G15KT 14/02 A3016 RMK A01 T01410020  RH  044%=      5-min Rain = 0
KDO1 171741Z 02016KT 14/02 A3017 RMK A01 T01440021  RH  043%=      5-min Rain = 0
KDO1 171742Z 02013KT 14/02 A3017 RMK A01 T01440020  RH  043%=      5-min Rain = 0
KDO1 171743Z 02012KT 14/02 A3017 RMK A01 T01430019  RH  043%=      5-min Rain = 0
KDO1 171744Z 01010KT 14/02 A3016 RMK A01 T01430019  RH  043%=      5-min Rain = 0
KDO1 171745Z 36010KT 15/02 A3016 RMK A01 T01450020  RH  043%=      5-min Rain = 0
KDO1 171746Z 00012KT 15/02 A3016 RMK A01 T01470020  RH  042%=      5-min Rain = 0
KDO1 171747Z 01010KT 15/02 A3016 RMK A01 T01480020  RH  042%=      5-min Rain = 0
KDO1 171748Z 01014G19KT 15/02 A3017 RMK A01 T01460020  RH  042%=      5-min Rain = 0
KDO1 171749Z 35014KT 14/02 A3016 RMK A01 T01440019  RH  043%=      5-min Rain = 0
KDO1 171750Z 00014G20KT 14/02 A3016 RMK A01 T01420018  RH  043%=      5-min Rain = 0
KDO1 171751Z 00012G18KT 14/02 A3016 RMK A01 T01430019  RH  043%=      5-min Rain = 0
KDO1 171752Z 36013G19KT 15/02 A3016 RMK A01 T01460020  RH  042%=      5-min Rain = 0
KDO1 171753Z 00014KT 15/02 A3016 RMK A01 T01470020  RH  042%=      5-min Rain = 0
KDO1 171754Z 01012KT 15/02 A3016 RMK A01 T01450019  RH  042%=      5-min Rain = 0
KDO1 171755Z 02011G19KT 14/02 A3016 RMK A01 T01440019  RH  043%=      5-min Rain = 0
KDO1 171756Z 03016KT 14/02 A3016 RMK A01 T01430019  RH  043%=      5-min Rain = 0
KDO1 171757Z 02015KT 14/02 A3016 RMK A01 T01440018  RH  043%=      5-min Rain = 0
KDO1 171758Z 01013G18KT 14/02 A3016 RMK A01 T01430019  RH  043%=      5-min Rain = 0
KDO1 171759Z 36013KT 14/02 A3016 RMK A01 T01440020  RH  043%=      5-min Rain = 0
KDO1 171800Z 00013G19KT 15/02 A3016 RMK A01 T01480021  RH  042%=      5-min Rain = 0
KDO1 171801Z 01015KT 15/02 A3016 RMK A01 T01480019  RH  042%=      5-min Rain = 0
KDO1 171802Z 36012KT 15/02 A3016 RMK A01 T01460018  RH  042%=      5-min Rain = 0
KDO1 171803Z 35010KT 14/02 A3016 RMK A01 T01440019  RH  043%=      5-min Rain = 0
KDO1 171804Z 36011KT 15/02 A3016 RMK A01 T01460020  RH  043%=      5-min Rain = 0
KDO1 171805Z 01013G19KT 15/02 A3016 RMK A01 T01490021  RH  042%=      5-min Rain = 0
KDO1 171806Z 00013KT 15/02 A3016 RMK A01 T01500020  RH  041%=      5-min Rain = 0
KDO1 171807Z 01010KT 15/02 A3016 RMK A01 T01480019  RH  042%=      5-min Rain = 0
KDO1 171808Z 36011KT 15/02 A3016 RMK A01 T01470020  RH  042%=      5-min Rain = 0
KDO1 171809Z 36010KT 15/02 A3016 RMK A01 T01480019  RH  042%=      5-min Rain = 0
KDO1 171810Z 01010KT 15/02 A3015 RMK A01 T01470019  RH  042%=      5-min Rain = 0
KDO1 171811Z 03013KT 15/02 A3016 RMK A01 T01470019  RH  042%=      5-min Rain = 0
KDO1 171812Z 02013KT 15/02 A3016 RMK A01 T01470019  RH  042%=      5-min Rain = 0
KDO1 171813Z 01008KT 15/02 A3016 RMK A01 T01480020  RH  042%=      5-min Rain = 0
KDO1 171814Z 00009KT 15/02 A3016 RMK A01 T01480020  RH  042%=      5-min Rain = 0
KDO1 171815Z 35009KT 15/02 A3015 RMK A01 T01490020  RH  042%=      5-min Rain = 0
KDO1 171816Z 36006KT 15/02 A3015 RMK A01 T01510021  RH  041%=      5-min Rain = 0
KDO1 171817Z 36010KT 15/02 A3015 RMK A01 T01530021  RH  041%=      5-min Rain = 0
KDO1 171818Z 36010KT 15/02 A3015 RMK A01 T01530020  RH  041%=      5-min Rain = 0
KDO1 171819Z 35012KT 16/02 A3015 RMK A01 T01550021  RH  040%=      5-min Rain = 0
KDO1 171820Z 35012G17KT 16/02 A3015 RMK A01 T01560019  RH  040%=      5-min Rain = 0
KDO1 171821Z 35012KT 16/02 A3015 RMK A01 T01550019  RH  040%=      5-min Rain = 0
KDO1 171822Z 36009KT 15/02 A3015 RMK A01 T01520019  RH  041%=      5-min Rain = 0
KDO1 171823Z 01009KT 15/02 A3015 RMK A01 T01520020  RH  041%=      5-min Rain = 0
KDO1 171824Z 02010KT 15/02 A3015 RMK A01 T01530020  RH  040%=      5-min Rain = 0
KDO1 171825Z 01009KT 15/02 A3015 RMK A01 T01520019  RH  041%=      5-min Rain = 0
KDO1 171826Z 01008KT 15/02 A3015 RMK A01 T01510019  RH  041%=      5-min Rain = 0
KDO1 171827Z 03012KT 15/02 A3015 RMK A01 T01520019  RH  041%=      5-min Rain = 0
KDO1 171828Z 01009KT 15/02 A3015 RMK A01 T01530019  RH  040%=      5-min Rain = 0
KDO1 171829Z 01010KT 15/02 A3015 RMK A01 T01530019  RH  040%=      5-min Rain = 0
KDO1 171830Z 01008KT 16/02 A3015 RMK A01 T01550019  RH  040%=      5-min Rain = 0
KDO1 171831Z 35012KT 16/02 A3015 RMK A01 T01570020  RH  040%=      5-min Rain = 0
KDO1 171832Z 35012KT 16/02 A3015 RMK A01 T01560017  RH  039%=      5-min Rain = 0
KDO1 171833Z 35012KT 15/02 A3015 RMK A01 T01540016  RH  039%=      5-min Rain = 0
KDO1 171834Z 35012KT 15/02 A3015 RMK A01 T01530016  RH  040%=      5-min Rain = 0
KDO1 171835Z 35012KT 15/02 A3015 RMK A01 T01530016  RH  040%=      5-min Rain = 0
KDO1 171836Z 35012KT 15/02 A3015 RMK A01 T01540017  RH  040%=      5-min Rain = 0
KDO1 171837Z 36010KT 15/02 A3015 RMK A01 T01520017  RH  040%=      5-min Rain = 0
KDO1 171838Z 34012KT 15/02 A3015 RMK A01 T01510017  RH  040%=      5-min Rain = 0
KDO1 171839Z 34009KT 15/02 A3014 RMK A01 T01510017  RH  040%=      5-min Rain = 0
KDO1 171840Z 36010KT 15/02 A3014 RMK A01 T01500018  RH  041%=      5-min Rain = 0
KDO1 171841Z 00009KT 15/02 A3014 RMK A01 T01520019  RH  041%=      5-min Rain = 0
KDO1 171842Z 01015G22KT 15/02 A3014 RMK A01 T01530019  RH  040%=      5-min Rain = 0
KDO1 171843Z 00012KT 15/02 A3014 RMK A01 T01540018  RH  040%=      5-min Rain = 0
KDO1 171844Z 02011G19KT 15/02 A3014 RMK A01 T01540018  RH  040%=      5-min Rain = 0
KDO1 171845Z 02016KT 15/02 A3014 RMK A01 T01540018  RH  040%=      5-min Rain = 0
KDO1 171846Z 02015KT 15/02 A3014 RMK A01 T01530017  RH  040%=      5-min Rain = 0
KDO1 171847Z 01014KT 15/02 A3014 RMK A01 T01530017  RH  040%=      5-min Rain = 0
KDO1 171848Z 02011KT 15/02 A3014 RMK A01 T01530017  RH  040%=      5-min Rain = 0
KDO1 171849Z 01013KT 15/02 A3014 RMK A01 T01540018  RH  040%=      5-min Rain = 0
KDO1 171850Z 00010KT 15/02 A3014 RMK A01 T01540018  RH  040%=      5-min Rain = 0
KDO1 171851Z 35010KT 15/02 A3014 RMK A01 T01520018  RH  040%=      5-min Rain = 0
KDO1 171852Z 36010KT 15/02 A3013 RMK A01 T01520019  RH  041%=      5-min Rain = 0
KDO1 171853Z 01011KT 15/02 A3013 RMK A01 T01540019  RH  040%=      5-min Rain = 0
KDO1 171854Z 00012KT 16/02 A3013 RMK A01 T01550018  RH  040%=      5-min Rain = 0
KDO1 171855Z 01010KT 15/02 A3013 RMK A01 T01540017  RH  040%=      5-min Rain = 0
KDO1 171856Z 01008KT 15/02 A3013 RMK A01 T01530017  RH  040%=      5-min Rain = 0
KDO1 171857Z 01010KT 16/02 A3013 RMK A01 T01550019  RH  040%=      5-min Rain = 0
KDO1 171858Z 02009KT 16/02 A3013 RMK A01 T01560019  RH  040%=      5-min Rain = 0
KDO1 171859Z 02011KT 16/02 A3013 RMK A01 T01570019  RH  039%=      5-min Rain = 0
KDO1 171900Z 03007KT 16/02 A3013 RMK A01 T01580019  RH  039%=      5-min Rain = 0
KDO1 171901Z 03009KT 16/02 A3013 RMK A01 T01620021  RH  039%=      5-min Rain = 0
KDO1 171902Z 02011KT 16/02 A3013 RMK A01 T01630020  RH  038%=      5-min Rain = 0
KDO1 171903Z 34010G15KT 16/02 A3013 RMK A01 T01610019  RH  038%=      5-min Rain = 0
KDO1 171904Z 34011G16KT 16/02 A3013 RMK A01 T01600016  RH  038%=      5-min Rain = 0
KDO1 171905Z 00011G16KT 16/02 A3013 RMK A01 T01590018  RH  038%=      5-min Rain = 0
KDO1 171906Z 35015G20KT 16/02 A3013 RMK A01 T01590018  RH  039%=      5-min Rain = 0
KDO1 171907Z 35015G20KT 16/02 A3013 RMK A01 T01590018  RH  038%=      5-min Rain = 0
KDO1 171908Z 36012KT 16/02 A3013 RMK A01 T01560016  RH  039%=      5-min Rain = 0
KDO1 171909Z 35010G16KT 16/02 A3013 RMK A01 T01550018  RH  040%=      5-min Rain = 0
KDO1 171910Z 01012KT 16/02 A3012 RMK A01 T01570019  RH  039%=      5-min Rain = 0
KDO1 171911Z 35010KT 16/02 A3012 RMK A01 T01560017  RH  039%=      5-min Rain = 0
KDO1 171912Z 34011KT 15/02 A3012 RMK A01 T01540018  RH  040%=      5-min Rain = 0
KDO1 171913Z 34011KT 15/02 A3012 RMK A01 T01530018  RH  040%=      5-min Rain = 0
KDO1 171914Z 33009KT 15/02 A3012 RMK A01 T01530018  RH  040%=      5-min Rain = 0
KDO1 171915Z 35008KT 15/02 A3012 RMK A01 T01530017  RH  040%=      5-min Rain = 0
KDO1 171916Z 35010KT 15/02 A3012 RMK A01 T01530017  RH  040%=      5-min Rain = 0
KDO1 171917Z 34007KT 15/02 A3012 RMK A01 T01540018  RH  040%=      5-min Rain = 0
KDO1 171918Z 01012KT 16/02 A3012 RMK A01 T01570019  RH  039%=      5-min Rain = 0
KDO1 171919Z 01012KT 16/02 A3012 RMK A01 T01580018  RH  039%=      5-min Rain = 0
KDO1 171920Z 01012KT 16/02 A3012 RMK A01 T01580016  RH  038%=      5-min Rain = 0
KDO1 171921Z 34010KT 16/02 A3012 RMK A01 T01550016  RH  039%=      5-min Rain = 0
KDO1 171922Z 35009KT 16/02 A3012 RMK A01 T01550017  RH  039%=      5-min Rain = 0
KDO1 171923Z 35008KT 16/02 A3012 RMK A01 T01550017  RH  039%=      5-min Rain = 0
KDO1 171924Z 35007KT 16/02 A3011 RMK A01 T01550017  RH  039%=      5-min Rain = 0
KDO1 171925Z 35004KT 16/02 A3011 RMK A01 T01560019  RH  039%=      5-min Rain = 0
KDO1 171926Z 33004KT 16/02 A3011 RMK A01 T01610021  RH  039%=      5-min Rain = 0
KDO1 171927Z 34007KT 16/02 A3011 RMK A01 T01620019  RH  038%=      5-min Rain = 0
KDO1 171928Z 34010KT 16/02 A3011 RMK A01 T01590016  RH  038%=      5-min Rain = 0
KDO1 171929Z 34013KT 16/02 A3011 RMK A01 T01590017  RH  038%=      5-min Rain = 0
KDO1 171930Z 34009KT 16/02 A3011 RMK A01 T01590017  RH  038%=      5-min Rain = 0
KDO1 171931Z 34013KT 16/02 A3011 RMK A01 T01580018  RH  039%=      5-min Rain = 0
KDO1 171932Z 34010KT 16/02 A3011 RMK A01 T01570017  RH  039%=      5-min Rain = 0
KDO1 171933Z 35009KT 16/02 A3011 RMK A01 T01560018  RH  039%=      5-min Rain = 0
KDO1 171934Z 33007KT 16/02 A3011 RMK A01 T01560017  RH  039%=      5-min Rain = 0
KDO1 171935Z 35005KT 16/02 A3011 RMK A01 T01560017  RH  039%=      5-min Rain = 0
KDO1 171936Z 01007KT 16/02 A3011 RMK A01 T01550017  RH  039%=      5-min Rain = 0
KDO1 171937Z 36005KT 16/02 A3011 RMK A01 T01560017  RH  039%=      5-min Rain = 0
KDO1 171938Z 01007KT 16/02 A3011 RMK A01 T01580018  RH  039%=      5-min Rain = 0
KDO1 171939Z 02010KT 16/02 A301 RMK A01 T01630019  RH  038%=      5-min Rain = 0
KDO1 171940Z 02010KT 16/02 A301 RMK A01 T01630017  RH  037%=      5-min Rain = 0
KDO1 171941Z 02012KT 16/02 A301 RMK A01 T01610017  RH  038%=      5-min Rain = 0
KDO1 171942Z 02009KT 16/02 A301 RMK A01 T01600017  RH  038%=      5-min Rain = 0
KDO1 171943Z 03008KT 16/02 A301 RMK A01 T01590017  RH  038%=      5-min Rain = 0
KDO1 171944Z 02010KT 16/02 A301 RMK A01 T01600017  RH  038%=      5-min Rain = 0
KDO1 171945Z 01009KT 16/02 A301 RMK A01 T01610017  RH  038%=      5-min Rain = 0
KDO1 171946Z 00006KT 16/02 A301 RMK A01 T01600016  RH  038%=      5-min Rain = 0
KDO1 171947Z 02005KT 16/02 A301 RMK A01 T01590016  RH  038%=      5-min Rain = 0
KDO1 171948Z 35007KT 16/02 A301 RMK A01 T01590017  RH  038%=      5-min Rain = 0
KDO1 171949Z 01011KT 16/02 A301 RMK A01 T01620018  RH  038%=      5-min Rain = 0
KDO1 171950Z 01011KT 16/02 A301 RMK A01 T01640016  RH  037%=      5-min Rain = 0
KDO1 171951Z 01010KT 16/02 A301 RMK A01 T01610015  RH  037%=      5-min Rain = 0
KDO1 171952Z 01008KT 16/01 A301 RMK A01 T01590014  RH  038%=      5-min Rain = 0
KDO1 171953Z 02007KT 16/02 A301 RMK A01 T01580015  RH  038%=      5-min Rain = 0
KDO1 171954Z 01005KT 16/02 A3009 RMK A01 T01590015  RH  038%=      5-min Rain = 0
KDO1 171955Z 01006KT 16/02 A3009 RMK A01 T01610017  RH  038%=      5-min Rain = 0
KDO1 171956Z 00007KT 16/02 A3009 RMK A01 T01630016  RH  037%=      5-min Rain = 0
KDO1 171957Z 34011KT 16/02 A3009 RMK A01 T01640015  RH  037%=      5-min Rain = 0
KDO1 171958Z 34011KT 17/01 A3009 RMK A01 T01660012  RH  035%=      5-min Rain = 0
KDO1 171959Z 33009KT 16/01 A3009 RMK A01 T01640010  RH  035%=      5-min Rain = 0
KDO1 172000Z 01010KT 16/01 A3009 RMK A01 T01630013  RH  036%=      5-min Rain = 0
KDO1 172001Z 36008KT 16/02 A3009 RMK A01 T01630015  RH  037%=      5-min Rain = 0
KDO1 172002Z 01007KT 16/02 A3009 RMK A01 T01640015  RH  037%=      5-min Rain = 0
KDO1 172003Z 00007KT 16/02 A3009 RMK A01 T01640016  RH  037%=      5-min Rain = 0
KDO1 172004Z 36009KT 16/02 A3009 RMK A01 T01640015  RH  037%=      5-min Rain = 0
KDO1 172005Z 34012KT 16/02 A3009 RMK A01 T01640015  RH  037%=      5-min Rain = 0
KDO1 172006Z 35009KT 16/01 A3009 RMK A01 T01640014  RH  036%=      5-min Rain = 0
KDO1 172007Z 36008KT 16/01 A3009 RMK A01 T01640014  RH  036%=      5-min Rain = 0
KDO1 172008Z 00005KT 16/01 A3009 RMK A01 T01630013  RH  036%=      5-min Rain = 0
KDO1 172009Z 34005KT 16/01 A3009 RMK A01 T01620014  RH  037%=      5-min Rain = 0
KDO1 172010Z 34006KT 16/01 A3009 RMK A01 T01640014  RH  036%=      5-min Rain = 0
KDO1 172011Z 33009KT 17/01 A3009 RMK A01 T01650013  RH  036%=      5-min Rain = 0
KDO1 172012Z 33011KT 17/01 A3008 RMK A01 T01650012  RH  036%=      5-min Rain = 0
KDO1 172013Z 35008KT 17/01 A3009 RMK A01 T01660013  RH  035%=      5-min Rain = 0
KDO1 172014Z 36009KT 17/01 A3009 RMK A01 T01690013  RH  035%=      5-min Rain = 0
KDO1 172015Z 01012KT 17/01 A3009 RMK A01 T01690012  RH  035%=      5-min Rain = 0
KDO1 172016Z 36009KT 17/01 A3009 RMK A01 T01680012  RH  035%=      5-min Rain = 0
KDO1 172017Z 01010KT 17/01 A3009 RMK A01 T01670011  RH  035%=      5-min Rain = 0
KDO1 172018Z 01011KT 17/01 A3009 RMK A01 T01660010  RH  035%=      5-min Rain = 0
KDO1 172019Z 01008KT 16/01 A3009 RMK A01 T01640009  RH  035%=      5-min Rain = 0
KDO1 172020Z 00009KT 16/01 A3009 RMK A01 T01630009  RH  035%=      5-min Rain = 0
KDO1 172021Z 00008KT 16/01 A3008 RMK A01 T01630011  RH  036%=      5-min Rain = 0
KDO1 172022Z 01008KT 16/01 A3008 RMK A01 T01620013  RH  036%=      5-min Rain = 0
KDO1 172023Z 36010KT 16/01 A3008 RMK A01 T01640013  RH  036%=      5-min Rain = 0
KDO1 172024Z 00006KT 17/01 A3008 RMK A01 T01650013  RH  036%=      5-min Rain = 0
KDO1 172025Z 01005KT 16/01 A3008 RMK A01 T01640013  RH  036%=      5-min Rain = 0
KDO1 172026Z 00006KT 16/01 A3008 RMK A01 T01630013  RH  036%=      5-min Rain = 0
KDO1 172027Z 01010KT 17/01 A3008 RMK A01 T01650013  RH  036%=      5-min Rain = 0
KDO1 172028Z 35008KT 17/01 A3008 RMK A01 T01650012  RH  035%=      5-min Rain = 0
KDO1 172029Z 35011KT 17/01 A3008 RMK A01 T01650009  RH  035%=      5-min Rain = 0
KDO1 172030Z 34008KT 16/01 A3008 RMK A01 T01640007  RH  034%=      5-min Rain = 0
KDO1 172031Z 34008G13KT 16/01 A3008 RMK A01 T01630008  RH  035%=      5-min Rain = 0
KDO1 172032Z 35011KT 16/01 A3008 RMK A01 T01630010  RH  035%=      5-min Rain = 0
KDO1 172033Z 35008KT 16/01 A3008 RMK A01 T01630010  RH  036%=      5-min Rain = 0
KDO1 172034Z 34005KT 16/01 A3008 RMK A01 T01620010  RH  036%=      5-min Rain = 0
KDO1 172035Z 34005KT 16/01 A3008 RMK A01 T01620010  RH  036%=      5-min Rain = 0
KDO1 172036Z 35007KT 17/01 A3008 RMK A01 T01650009  RH  035%=      5-min Rain = 0
KDO1 172037Z 34011KT 17/01 A3008 RMK A01 T01660007  RH  034%=      5-min Rain = 0
KDO1 172038Z 35008KT 17/01 A3008 RMK A01 T01660008  RH  034%=      5-min Rain = 0
KDO1 172039Z 34009KT 17/01 A3008 RMK A01 T01650010  RH  035%=      5-min Rain = 0
KDO1 172040Z 33010KT 16/01 A3008 RMK A01 T01640010  RH  035%=      5-min Rain = 0
KDO1 172041Z 34009KT 16/01 A3008 RMK A01 T01640011  RH  036%=      5-min Rain = 0
KDO1 172042Z 34006KT 16/01 A3008 RMK A01 T01640010  RH  035%=      5-min Rain = 0
KDO1 172043Z 32005KT 16/01 A3008 RMK A01 T01630009  RH  035%=      5-min Rain = 0
KDO1 172044Z 34005KT 16/01 A3008 RMK A01 T01630009  RH  035%=      5-min Rain = 0
KDO1 172045Z 35008G14KT 16/01 A3008 RMK A01 T01640009  RH  035%=      5-min Rain = 0
KDO1 172046Z 35012KT 17/01 A3008 RMK A01 T01650009  RH  035%=      5-min Rain = 0
KDO1 172047Z 35009KT 16/01 A3008 RMK A01 T01640009  RH  035%=      5-min Rain = 0
KDO1 172048Z 36007KT 16/01 A3008 RMK A01 T01640009  RH  035%=      5-min Rain = 0
KDO1 172049Z 01006KT 16/01 A3008 RMK A01 T01640009  RH  035%=      5-min Rain = 0
KDO1 172050Z 36006G11KT 16/01 A3008 RMK A01 T01640010  RH  035%=      5-min Rain = 0
KDO1 172051Z 35006KT 17/01 A3007 RMK A01 T01650010  RH  035%=      5-min Rain = 0
KDO1 172052Z 34005KT 17/01 A3007 RMK A01 T01660011  RH  035%=      5-min Rain = 0
KDO1 172053Z 33009KT 17/01 A3007 RMK A01 T01660009  RH  035%=      5-min Rain = 0
KDO1 172054Z 34008KT 16/01 A3007 RMK A01 T01640008  RH  035%=      5-min Rain = 0
KDO1 172055Z 34009KT 16/01 A3007 RMK A01 T01640008  RH  035%=      5-min Rain = 0
KDO1 172056Z 33009KT 17/01 A3007 RMK A01 T01670008  RH  034%=      5-min Rain = 0
KDO1 172057Z 33007G12KT 17/01 A3007 RMK A01 T01680007  RH  034%=      5-min Rain = 0
KDO1 172058Z 33011KT 17/01 A3007 RMK A01 T01690007  RH  033%=      5-min Rain = 0
KDO1 172059Z 35010KT 17/01 A3007 RMK A01 T01690008  RH  034%=      5-min Rain = 0
KDO1 172100Z 35011KT 17/01 A3007 RMK A01 T01670008  RH  034%=      5-min Rain = 0
KDO1 172101Z 36011KT 17/01 A3008 RMK A01 T01660009  RH  035%=      5-min Rain = 0
KDO1 172102Z 01009KT 17/01 A3008 RMK A01 T01650009  RH  035%=      5-min Rain = 0
KDO1 172103Z 01007KT 16/01 A3008 RMK A01 T01640009  RH  035%=      5-min Rain = 0
KDO1 172104Z 01005KT 16/01 A3007 RMK A01 T01640010  RH  035%=      5-min Rain = 0
KDO1 172105Z 01005KT 17/01 A3007 RMK A01 T01650010  RH  035%=      5-min Rain = 0
KDO1 172106Z 01006KT 17/01 A3007 RMK A01 T01680010  RH  035%=      5-min Rain = 0
KDO1 172107Z 02006KT 17/01 A3007 RMK A01 T01680009  RH  034%=      5-min Rain = 0
KDO1 172108Z 03005KT 17/01 A3007 RMK A01 T01660009  RH  035%=      5-min Rain = 0
KDO1 172109Z 00007KT 17/01 A3007 RMK A01 T01650009  RH  035%=      5-min Rain = 0
KDO1 172110Z 35008KT 17/01 A3007 RMK A01 T01680008  RH  034%=      5-min Rain = 0
KDO1 172111Z 34009KT 17/00 A3007 RMK A01 T01700004  RH  033%=      5-min Rain = 0
KDO1 172112Z 35010KT 17/00 A3007 RMK A01 T01700004  RH  032%=      5-min Rain = 0
KDO1 172113Z 33010G15KT 17/01 A3007 RMK A01 T01680005  RH  033%=      5-min Rain = 0
KDO1 172114Z 33010KT 17/01 A3007 RMK A01 T01670005  RH  033%=      5-min Rain = 0
KDO1 172115Z 35010KT 17/01 A3007 RMK A01 T01660006  RH  034%=      5-min Rain = 0
KDO1 172116Z 33008KT 17/01 A3007 RMK A01 T01670005  RH  033%=      5-min Rain = 0
KDO1 172117Z 33009KT 17/00 A3007 RMK A01 T01670004  RH  033%=      5-min Rain = 0
KDO1 172118Z 33010KT 17/00 A3007 RMK A01 T01660003  RH  033%=      5-min Rain = 0
KDO1 172119Z 34008KT 17/01 A3007 RMK A01 T01650005  RH  034%=      5-min Rain = 0
KDO1 172120Z 34010KT 17/01 A3007 RMK A01 T01670005  RH  033%=      5-min Rain = 0
KDO1 172121Z 34009KT 17/01 A3007 RMK A01 T01670005  RH  033%=      5-min Rain = 0
KDO1 172122Z 35009KT 17/01 A3007 RMK A01 T01660005  RH  034%=      5-min Rain = 0
KDO1 172123Z 34008KT 16/00 A3007 RMK A01 T01640004  RH  034%=      5-min Rain = 0
KDO1 172124Z 35008KT 17/01 A3007 RMK A01 T01650005  RH  034%=      5-min Rain = 0
KDO1 172125Z 34007KT 17/01 A3007 RMK A01 T01660005  RH  034%=      5-min Rain = 0
KDO1 172126Z 34007KT 17/01 A3007 RMK A01 T01660005  RH  033%=      5-min Rain = 0
KDO1 172127Z 34006KT 17/00 A3007 RMK A01 T01660004  RH  033%=      5-min Rain = 0
KDO1 172128Z 35004KT 16/00 A3007 RMK A01 T01640004  RH  034%=      5-min Rain = 0
KDO1 172129Z 00003KT 16/00 A3007 RMK A01 T01640004  RH  034%=      5-min Rain = 0
KDO1 172130Z 34002KT 16/00 A3007 RMK A01 T01640004  RH  034%=      5-min Rain = 0
KDO1 172131Z 36004KT 17/01 A3007 RMK A01 T01650005  RH  034%=      5-min Rain = 0
KDO1 172132Z 36008KT 17/01 A3007 RMK A01 T01660005  RH  033%=      5-min Rain = 0
KDO1 172133Z 00008KT 17/01 A3007 RMK A01 T01660006  RH  034%=      5-min Rain = 0
KDO1 172134Z 00006KT 17/01 A3007 RMK A01 T01660006  RH  034%=      5-min Rain = 0
KDO1 172135Z 36007KT 17/01 A3007 RMK A01 T01670007  RH  034%=      5-min Rain = 0
KDO1 172136Z 00007KT 17/01 A3007 RMK A01 T01660007  RH  034%=      5-min Rain = 0
KDO1 172137Z 35006KT 17/01 A3007 RMK A01 T01650008  RH  034%=      5-min Rain = 0
KDO1 172138Z 34006KT 17/01 A3007 RMK A01 T01660007  RH  034%=      5-min Rain = 0
KDO1 172139Z 35005KT 17/01 A3007 RMK A01 T01650007  RH  034%=      5-min Rain = 0
KDO1 172140Z 34003KT 17/01 A3007 RMK A01 T01650007  RH  034%=      5-min Rain = 0
KDO1 172141Z 01003KT 17/01 A3007 RMK A01 T01650007  RH  034%=      5-min Rain = 0
KDO1 172142Z 01006KT 17/01 A3007 RMK A01 T01660007  RH  034%=      5-min Rain = 0
KDO1 172143Z 02004KT 17/01 A3007 RMK A01 T01660006  RH  034%=      5-min Rain = 0
KDO1 172144Z 02006KT 17/01 A3007 RMK A01 T01650006  RH  034%=      5-min Rain = 0
KDO1 172145Z 02005KT 17/01 A3007 RMK A01 T01650006  RH  034%=      5-min Rain = 0
KDO1 172146Z 02007KT 17/01 A3007 RMK A01 T01670007  RH  034%=      5-min Rain = 0
KDO1 172147Z 00006KT 17/01 A3007 RMK A01 T01670006  RH  034%=      5-min Rain = 0
KDO1 172148Z 02006KT 17/01 A3007 RMK A01 T01680007  RH  034%=      5-min Rain = 0
KDO1 172149Z 00010KT 17/01 A3007 RMK A01 T01690006  RH  033%=      5-min Rain = 0
KDO1 172150Z 00008KT 17/01 A3007 RMK A01 T01680006  RH  033%=      5-min Rain = 0
KDO1 172151Z 00005KT 17/01 A3007 RMK A01 T01670006  RH  034%=      5-min Rain = 0
KDO1 172152Z 02006KT 17/01 A3007 RMK A01 T01670006  RH  034%=      5-min Rain = 0
KDO1 172153Z 02004KT 17/01 A3007 RMK A01 T01660006  RH  034%=      5-min Rain = 0
KDO1 172154Z 01004KT 17/01 A3007 RMK A01 T01670007  RH  034%=      5-min Rain = 0
KDO1 172155Z 00006KT 17/01 A3007 RMK A01 T01670006  RH  034%=      5-min Rain = 0
KDO1 172156Z 00005KT 17/01 A3007 RMK A01 T01670006  RH  034%=      5-min Rain = 0
KDO1 172157Z 00005KT 17/01 A3007 RMK A01 T01670006  RH  034%=      5-min Rain = 0
KDO1 172158Z 34006KT 17/01 A3007 RMK A01 T01670006  RH  033%=      5-min Rain = 0
KDO1 172159Z 36007KT 17/00 A3007 RMK A01 T01660004  RH  033%=      5-min Rain = 0
KDO1 172200Z 36008KT 17/01 A3007 RMK A01 T01650005  RH  034%=      5-min Rain = 0
KDO1 172201Z 36006KT 17/01 A3007 RMK A01 T01660005  RH  034%=      5-min Rain = 0
KDO1 172202Z 35005KT 17/01 A3007 RMK A01 T01660005  RH  034%=      5-min Rain = 0
KDO1 172203Z 36005KT 17/01 A3007 RMK A01 T01660006  RH  034%=      5-min Rain = 0
KDO1 172204Z 34007KT 17/01 A3007 RMK A01 T01660006  RH  034%=      5-min Rain = 0
KDO1 172205Z 35008KT 17/01 A3007 RMK A01 T01660006  RH  034%=      5-min Rain = 0
KDO1 172206Z 36006KT 17/01 A3007 RMK A01 T01660006  RH  034%=      5-min Rain = 0
KDO1 172207Z 36007KT 17/01 A3007 RMK A01 T01660006  RH  034%=      5-min Rain = 0
KDO1 172208Z 35008KT 17/01 A3007 RMK A01 T01660006  RH  034%=      5-min Rain = 0
KDO1 172209Z 01006KT 17/01 A3007 RMK A01 T01650005  RH  034%=      5-min Rain = 0
KDO1 172210Z 35008KT 17/01 A3007 RMK A01 T01660005  RH  034%=      5-min Rain = 0
KDO1 172211Z 35009KT 17/00 A3007 RMK A01 T01650004  RH  033%=      5-min Rain = 0
KDO1 172212Z 00006KT 17/01 A3007 RMK A01 T01650005  RH  034%=      5-min Rain = 0
KDO1 172213Z 36005KT 16/01 A3007 RMK A01 T01640005  RH  034%=      5-min Rain = 0
KDO1 172214Z 36005KT 16/01 A3007 RMK A01 T01640005  RH  034%=      5-min Rain = 0
KDO1 172215Z 36005KT 16/01 A3007 RMK A01 T01630005  RH  034%=      5-min Rain = 0
KDO1 172216Z 01004KT 16/01 A3007 RMK A01 T01640006  RH  034%=      5-min Rain = 0
KDO1 172217Z 35005KT 16/01 A3007 RMK A01 T01640005  RH  034%=      5-min Rain = 0
KDO1 172218Z 35007KT 17/01 A3007 RMK A01 T01650005  RH  034%=      5-min Rain = 0
KDO1 172219Z 35008KT 17/00 A3007 RMK A01 T01650004  RH  033%=      5-min Rain = 0
KDO1 172220Z 36005KT 17/00 A3007 RMK A01 T01650003  RH  033%=      5-min Rain = 0
KDO1 172221Z 35008KT 16/00 A3007 RMK A01 T01640003  RH  033%=      5-min Rain = 0
KDO1 172222Z 01008KT 16/00 A3007 RMK A01 T01640003  RH  034%=      5-min Rain = 0
KDO1 172223Z 36008KT 16/00 A3007 RMK A01 T01640004  RH  034%=      5-min Rain = 0
KDO1 172224Z 00007KT 16/00 A3007 RMK A01 T01640003  RH  034%=      5-min Rain = 0
KDO1 172225Z 02005KT 16/00 A3007 RMK A01 T01640003  RH  034%=      5-min Rain = 0
KDO1 172226Z 02007KT 16/00 A3007 RMK A01 T01640003  RH  034%=      5-min Rain = 0
KDO1 172227Z 01005KT 16/00 A3007 RMK A01 T01630002  RH  034%=      5-min Rain = 0
KDO1 172228Z 00004KT 16/00 A3007 RMK A01 T01630003  RH  034%=      5-min Rain = 0
KDO1 172229Z 34007KT 16/00 A3007 RMK A01 T01630003  RH  034%=      5-min Rain = 0
KDO1 172230Z 34008KT 16/00 A3007 RMK A01 T01640003  RH  034%=      5-min Rain = 0
KDO1 172231Z 34008KT 16/00 A3007 RMK A01 T01630002  RH  034%=      5-min Rain = 0
KDO1 172232Z 34008KT 16/00 A3007 RMK A01 T01620003  RH  034%=      5-min Rain = 0
KDO1 172233Z 35007KT 16/00 A3007 RMK A01 T01620003  RH  034%=      5-min Rain = 0
KDO1 172234Z 35007KT 16/00 A3007 RMK A01 T01620003  RH  034%=      5-min Rain = 0
KDO1 172235Z 35006KT 16/00 A3007 RMK A01 T01620003  RH  034%=      5-min Rain = 0
KDO1 172236Z 35005KT 16/00 A3007 RMK A01 T01620003  RH  034%=      5-min Rain = 0
KDO1 172237Z 35005KT 16/00 A3007 RMK A01 T01620003  RH  034%=      5-min Rain = 0
KDO1 172238Z 36005KT 16/00 A3007 RMK A01 T01620003  RH  034%=      5-min Rain = 0
KDO1 172239Z 35005KT 16/00 A3007 RMK A01 T01620003  RH  034%=      5-min Rain = 0
KDO1 172240Z 00004KT 16/00 A3007 RMK A01 T01620002  RH  034%=      5-min Rain = 0
KDO1 172241Z 35004KT 16/00 A3007 RMK A01 T01610002  RH  034%=      5-min Rain = 0
KDO1 172242Z 35005KT 16/00 A3007 RMK A01 T01610002  RH  034%=      5-min Rain = 0
KDO1 172243Z 01007KT 16/00 A3007 RMK A01 T01610002  RH  034%=      5-min Rain = 0
KDO1 172244Z 02006KT 16/00 A3007 RMK A01 T01610001  RH  034%=      5-min Rain = 0
KDO1 172245Z 35004KT 16/00 A3007 RMK A01 T01610001  RH  034%=      5-min Rain = 0
KDO1 172246Z 35005KT 16/00 A3007 RMK A01 T01610002  RH  034%=      5-min Rain = 0
KDO1 172247Z 35007KT 16/00 A3007 RMK A01 T01610001  RH  034%=      5-min Rain = 0
KDO1 172248Z 34007KT 16/00 A3007 RMK A01 T016000-0  RH  034%=      5-min Rain = 0
KDO1 172249Z 34006KT 16/00 A3007 RMK A01 T016000-0  RH  034%=      5-min Rain = 0
KDO1 172250Z 35007KT 16/00 A3007 RMK A01 T01590000  RH  034%=      5-min Rain = 0
KDO1 172251Z 35006KT 16/00 A3007 RMK A01 T01590000  RH  034%=      5-min Rain = 0
KDO1 172252Z 35006KT 16/00 A3007 RMK A01 T01590001  RH  034%=      5-min Rain = 0
KDO1 172253Z 35006KT 16/00 A3007 RMK A01 T01590001  RH  034%=      5-min Rain = 0
KDO1 172254Z 36007KT 16/00 A3007 RMK A01 T01580001  RH  034%=      5-min Rain = 0
KDO1 172255Z 35005KT 16/00 A3007 RMK A01 T01580001  RH  034%=      5-min Rain = 0
KDO1 172256Z 35004KT 16/00 A3007 RMK A01 T01570001  RH  034%=      5-min Rain = 0
KDO1 172257Z 35005KT 16/00 A3007 RMK A01 T01570001  RH  034%=      5-min Rain = 0
KDO1 172258Z 35005KT 16/00 A3007 RMK A01 T01570001  RH  035%=      5-min Rain = 0
KDO1 172259Z 00004KT 16/00 A3007 RMK A01 T01570001  RH  035%=      5-min Rain = 0
KDO1 172300Z 36004KT 16/00 A3007 RMK A01 T01560001  RH  035%=      5-min Rain = 0
KDO1 172301Z 00004KT 16/00 A3007 RMK A01 T01560001  RH  035%=      5-min Rain = 0
KDO1 172302Z 36004KT 16/00 A3007 RMK A01 T01560001  RH  035%=      5-min Rain = 0
KDO1 172303Z 36005KT 16/00 A3007 RMK A01 T01560001  RH  035%=      5-min Rain = 0
KDO1 172304Z 35005KT 16/00 A3007 RMK A01 T01550000  RH  035%=      5-min Rain = 0
KDO1 172305Z 35004KT 16/00 A3007 RMK A01 T015500-0  RH  035%=      5-min Rain = 0
KDO1 172306Z 35004KT 15/00 A3007 RMK A01 T015400-0  RH  035%=      5-min Rain = 0
KDO1 172307Z 36004KT 15/M00 A3007 RMK A01 T01541001  RH  035%=      5-min Rain = 0
KDO1 172308Z 36004KT 15/M00 A3007 RMK A01 T01531001  RH  035%=      5-min Rain = 0
KDO1 172309Z 36004KT 15/M00 A3007 RMK A01 T01531001  RH  035%=      5-min Rain = 0
KDO1 172310Z 36004KT 15/M00 A3007 RMK A01 T01521001  RH  035%=      5-min Rain = 0
KDO1 172311Z 35003KT 15/M00 A3007 RMK A01 T01511001  RH  035%=      5-min Rain = 0
KDO1 172312Z 36004KT 15/M00 A3007 RMK A01 T01511001  RH  035%=      5-min Rain = 0
KDO1 172313Z 36004KT 15/M00 A3007 RMK A01 T01501001  RH  035%=      5-min Rain = 0
KDO1 172314Z 36004KT 15/M00 A3007 RMK A01 T01501002  RH  036%=      5-min Rain = 0
KDO1 172315Z 36004KT 15/M00 A3007 RMK A01 T01491002  RH  036%=      5-min Rain = 0
KDO1 172316Z 35003KT 15/M00 A3007 RMK A01 T01481002  RH  036%=      5-min Rain = 0
KDO1 172317Z 35004KT 15/M00 A3007 RMK A01 T01481002  RH  036%=      5-min Rain = 0
KDO1 172318Z 35004KT 15/M00 A3007 RMK A01 T01471002  RH  036%=      5-min Rain = 0
KDO1 172319Z 35004KT 15/M00 A3007 RMK A01 T01471002  RH  036%=      5-min Rain = 0
KDO1 172320Z 35004KT 15/M00 A3007 RMK A01 T01461002  RH  036%=      5-min Rain = 0
KDO1 172321Z 35004KT 15/M00 A3007 RMK A01 T01451003  RH  036%=      5-min Rain = 0
KDO1 172322Z 35004KT 14/M00 A3007 RMK A01 T01441003  RH  037%=      5-min Rain = 0
KDO1 172323Z 35004KT 14/M00 A3007 RMK A01 T01431002  RH  037%=      5-min Rain = 0
KDO1 172324Z 35004KT 14/M00 A3007 RMK A01 T01421002  RH  037%=      5-min Rain = 0
KDO1 172325Z 34004KT 14/M00 A3007 RMK A01 T01411003  RH  037%=      5-min Rain = 0
KDO1 172326Z 34004KT 14/M00 A3007 RMK A01 T01401003  RH  037%=      5-min Rain = 0
KDO1 172327Z 34004KT 14/M00 A3007 RMK A01 T01391003  RH  038%=      5-min Rain = 0
KDO1 172328Z 33004KT 14/M00 A3007 RMK A01 T01381003  RH  038%=      5-min Rain = 0
KDO1 172329Z 33004KT 14/M00 A3007 RMK A01 T01371004  RH  038%=      5-min Rain = 0
KDO1 172330Z 33004KT 14/M00 A3008 RMK A01 T01371003  RH  038%=      5-min Rain = 0
KDO1 172331Z 33004KT 14/M00 A3008 RMK A01 T01361003  RH  038%=      5-min Rain = 0
KDO1 172332Z 33004KT 14/M00 A3008 RMK A01 T01351003  RH  039%=      5-min Rain = 0
KDO1 172333Z 33004KT 13/M00 A3008 RMK A01 T01341003  RH  039%=      5-min Rain = 0
KDO1 172334Z 33004KT 13/M00 A3008 RMK A01 T01331003  RH  039%=      5-min Rain = 0
KDO1 172335Z 33004KT 13/M00 A3008 RMK A01 T01331003  RH  039%=      5-min Rain = 0
KDO1 172336Z 33004KT 13/M00 A3008 RMK A01 T01321003  RH  039%=      5-min Rain = 0
KDO1 172337Z 34004KT 13/M00 A3008 RMK A01 T01321003  RH  039%=      5-min Rain = 0
KDO1 172338Z 34004KT 13/M00 A3008 RMK A01 T01311003  RH  040%=      5-min Rain = 0
KDO1 172339Z 33004KT 13/M00 A3008 RMK A01 T01311003  RH  040%=      5-min Rain = 0
KDO1 172340Z 33004KT 13/M00 A3008 RMK A01 T01301003  RH  040%=      5-min Rain = 0
KDO1 172341Z 33004KT 13/M00 A3008 RMK A01 T01291004  RH  040%=      5-min Rain = 0
KDO1 172342Z 33004KT 13/M00 A3008 RMK A01 T01281004  RH  040%=      5-min Rain = 0
KDO1 172343Z 33004KT 13/M00 A3008 RMK A01 T01281004  RH  040%=      5-min Rain = 0
KDO1 172344Z 33004KT 13/M00 A3008 RMK A01 T01271004  RH  041%=      5-min Rain = 0
KDO1 172345Z 33004KT 13/M00 A3008 RMK A01 T01271003  RH  041%=      5-min Rain = 0
KDO1 172346Z 33004KT 13/M00 A3008 RMK A01 T01271003  RH  041%=      5-min Rain = 0
KDO1 172347Z 33004KT 13/M00 A3008 RMK A01 T01271003  RH  041%=      5-min Rain = 0
KDO1 172348Z 33004KT 13/M00 A3008 RMK A01 T01271003  RH  041%=      5-min Rain = 0
KDO1 172349Z 33004KT 13/M00 A3008 RMK A01 T01271003  RH  041%=      5-min Rain = 0
KDO1 172350Z 34004KT 13/M00 A3008 RMK A01 T01261003  RH  041%=      5-min Rain = 0
KDO1 172351Z 34004KT 13/M00 A3008 RMK A01 T01261003  RH  041%=      5-min Rain = 0
KDO1 172352Z 34004KT 13/M00 A3008 RMK A01 T01261003  RH  041%=      5-min Rain = 0
KDO1 172353Z 34003KT 13/M00 A3008 RMK A01 T01251004  RH  041%=      5-min Rain = 0
KDO1 172354Z 34004KT 12/M00 A3008 RMK A01 T01241003  RH  041%=      5-min Rain = 0
KDO1 172355Z 34004KT 12/M00 A3008 RMK A01 T01241003  RH  041%=      5-min Rain = 0
KDO1 172356Z 35003KT 12/M00 A3008 RMK A01 T01241003  RH  041%=      5-min Rain = 0
KDO1 172357Z 35004KT 12/M00 A3008 RMK A01 T01241003  RH  042%=      5-min Rain = 0
KDO1 172358Z 35003KT 13/M00 A3008 RMK A01 T01251003  RH  041%=      5-min Rain = 0
KDO1 172359Z 34004KT 13/M00 A3008 RMK A01 T01251003  RH  041%=      5-min Rain = 0
KDO1 180000Z 35004KT 12/M00 A3008 RMK A01 T01241003  RH  041%=      5-min Rain = 0
KDO1 180001Z 34003KT 12/M00 A3008 RMK A01 T01241003  RH  042%=      5-min Rain = 0
KDO1 180002Z 34003KT 12/M00 A3008 RMK A01 T01241002  RH  042%=      5-min Rain = 0
KDO1 180003Z 34003KT 12/M00 A3008 RMK A01 T01241003  RH  042%=      5-min Rain = 0
KDO1 180004Z 34004KT 12/M00 A3008 RMK A01 T01231003  RH  042%=      5-min Rain = 0
KDO1 180005Z 34004KT 12/M00 A3008 RMK A01 T01231003  RH  042%=      5-min Rain = 0
KDO1 180006Z 35004KT 12/M00 A3008 RMK A01 T01221003  RH  042%=      5-min Rain = 0
KDO1 180007Z 35004KT 12/M00 A3008 RMK A01 T01221003  RH  042%=      5-min Rain = 0
KDO1 180008Z 35004KT 12/M00 A3008 RMK A01 T01221003  RH  042%=      5-min Rain = 0
KDO1 180009Z 35004KT 12/M00 A3008 RMK A01 T01211004  RH  042%=      5-min Rain = 0
KDO1 180010Z 35004KT 12/M00 A3008 RMK A01 T01201003  RH  043%=      5-min Rain = 0
KDO1 180011Z 35004KT 12/M00 A3008 RMK A01 T01201003  RH  043%=      5-min Rain = 0
KDO1 180012Z 35003KT 12/M00 A3008 RMK A01 T01201003  RH  043%=      5-min Rain = 0
KDO1 180013Z 35003KT 12/M00 A3008 RMK A01 T01201003  RH  043%=      5-min Rain = 0
KDO1 180014Z 35003KT 12/M00 A3008 RMK A01 T01191003  RH  043%=      5-min Rain = 0
KDO1 180015Z 35003KT 12/M00 A3008 RMK A01 T01191003  RH  043%=      5-min Rain = 0
KDO1 180016Z 35003KT 12/M00 A3008 RMK A01 T01191003  RH  043%=      5-min Rain = 0
KDO1 180017Z 36004KT 12/M00 A3008 RMK A01 T01181003  RH  043%=      5-min Rain = 0
KDO1 180018Z 35004KT 12/M00 A3008 RMK A01 T01181003  RH  043%=      5-min Rain = 0
KDO1 180019Z 35004KT 12/M00 A3008 RMK A01 T01181003  RH  043%=      5-min Rain = 0
KDO1 180020Z 35004KT 12/M00 A3008 RMK A01 T01171003  RH  043%=      5-min Rain = 0
KDO1 180021Z 35004KT 12/M00 A3008 RMK A01 T01161003  RH  044%=      5-min Rain = 0
KDO1 180022Z 35004KT 12/M00 A3008 RMK A01 T01161003  RH  044%=      5-min Rain = 0
KDO1 180023Z 35004KT 12/M00 A3008 RMK A01 T01161003  RH  044%=      5-min Rain = 0
KDO1 180024Z 35004KT 12/M00 A3008 RMK A01 T01151003  RH  044%=      5-min Rain = 0
KDO1 180025Z 35004KT 12/M00 A3008 RMK A01 T01151003  RH  044%=      5-min Rain = 0
KDO1 180026Z 35004KT 12/M00 A3008 RMK A01 T01151003  RH  044%=      5-min Rain = 0
KDO1 180027Z 35004KT 11/M00 A3008 RMK A01 T01141003  RH  044%=      5-min Rain = 0
KDO1 180028Z 35004KT 11/M00 A3009 RMK A01 T01141004  RH  044%=      5-min Rain = 0
KDO1 180029Z 34004KT 11/M00 A3009 RMK A01 T01131004  RH  044%=      5-min Rain = 0
KDO1 180030Z 34004KT 11/M00 A3009 RMK A01 T01121004  RH  045%=      5-min Rain = 0
KDO1 180031Z 35004KT 11/M00 A3009 RMK A01 T01111004  RH  045%=      5-min Rain = 0
KDO1 180032Z 35003KT 11/M00 A3009 RMK A01 T01111004  RH  045%=      5-min Rain = 0
KDO1 180033Z 35003KT 11/M00 A3009 RMK A01 T01121003  RH  045%=      5-min Rain = 0
KDO1 180034Z 35003KT 11/M00 A3009 RMK A01 T01131003  RH  045%=      5-min Rain = 0
KDO1 180035Z 35003KT 11/M00 A3009 RMK A01 T01131003  RH  044%=      5-min Rain = 0
KDO1 180036Z 35003KT 11/M00 A3009 RMK A01 T01141003  RH  044%=      5-min Rain = 0
KDO1 180037Z 34003KT 11/M00 A3009 RMK A01 T01141003  RH  044%=      5-min Rain = 0
KDO1 180038Z 34002KT 11/M00 A3009 RMK A01 T01141004  RH  044%=      5-min Rain = 0
KDO1 180039Z 34002KT 11/M00 A3009 RMK A01 T01131004  RH  044%=      5-min Rain = 0
KDO1 180040Z 34002KT 11/M00 A3009 RMK A01 T01131004  RH  044%=      5-min Rain = 0
KDO1 180041Z 34003KT 11/M00 A3009 RMK A01 T01121004  RH  045%=      5-min Rain = 0
KDO1 180042Z 34003KT 11/M00 A3008 RMK A01 T01121004  RH  045%=      5-min Rain = 0
KDO1 180043Z 34003KT 11/M00 A3008 RMK A01 T01121004  RH  045%=      5-min Rain = 0
KDO1 180044Z 34003KT 11/M00 A3009 RMK A01 T01121004  RH  045%=      5-min Rain = 0
KDO1 180045Z 33003KT 11/M01 A3008 RMK A01 T01111005  RH  045%=      5-min Rain = 0
KDO1 180046Z 33003KT 11/M01 A3008 RMK A01 T01081006  RH  045%=      5-min Rain = 0
KDO1 180047Z 33003KT 11/M01 A3008 RMK A01 T01071006  RH  046%=      5-min Rain = 0
KDO1 180048Z 32003KT 11/M01 A3008 RMK A01 T01071006  RH  046%=      5-min Rain = 0
KDO1 180049Z 32003KT 11/M01 A3008 RMK A01 T01051008  RH  045%=      5-min Rain = 0
KDO1 180050Z 30003KT 10/M01 A3008 RMK A01 T01011010  RH  046%=      5-min Rain = 0
KDO1 180051Z 29004KT 10/M02 A3009 RMK A01 T00951015  RH  046%=      5-min Rain = 0
KDO1 180052Z 29004KT 09/M01 A3009 RMK A01 T00911013  RH  048%=      5-min Rain = 0
KDO1 180053Z 30004KT 09/M01 A3009 RMK A01 T00901010  RH  049%=      5-min Rain = 0
KDO1 180054Z 30005KT 09/M01 A3009 RMK A01 T00921009  RH  049%=      5-min Rain = 0
KDO1 180055Z 30005KT 09/M01 A3009 RMK A01 T00931009  RH  049%=      5-min Rain = 0
KDO1 180056Z 30005KT 09/M01 A3009 RMK A01 T00931009  RH  049%=      5-min Rain = 0
KDO1 180057Z 30005KT 09/M01 A3009 RMK A01 T00931009  RH  049%=      5-min Rain = 0
KDO1 180058Z 30005KT 09/M01 A3009 RMK A01 T00921009  RH  049%=      5-min Rain = 0
KDO1 180059Z 30005KT 09/M01 A3009 RMK A01 T00921008  RH  050%=      5-min Rain = 0
KDO1 180100Z 31005KT 09/M01 A3009 RMK A01 T00921008  RH  050%=      5-min Rain = 0
KDO1 180101Z 30005KT 09/M01 A3009 RMK A01 T00931007  RH  050%=      5-min Rain = 0
KDO1 180102Z 30005KT 09/M01 A3009 RMK A01 T00931007  RH  049%=      5-min Rain = 0
KDO1 180103Z 30005KT 09/M01 A3009 RMK A01 T00931007  RH  049%=      5-min Rain = 0
KDO1 180104Z 30005KT 09/M01 A3009 RMK A01 T00931007  RH  049%=      5-min Rain = 0
KDO1 180105Z 30006KT 09/M01 A3009 RMK A01 T00941007  RH  049%=      5-min Rain = 0
KDO1 180106Z 30006KT 09/M01 A3009 RMK A01 T00941007  RH  049%=      5-min Rain = 0
KDO1 180107Z 30005KT 09/M01 A3009 RMK A01 T00941007  RH  049%=      5-min Rain = 0
KDO1 180108Z 30005KT 09/M01 A3009 RMK A01 T00941007  RH  049%=      5-min Rain = 0
KDO1 180109Z 30005KT 09/M01 A3009 RMK A01 T00941007  RH  049%=      5-min Rain = 0
KDO1 180110Z 30005KT 09/M01 A3009 RMK A01 T00941007  RH  049%=      5-min Rain = 0
KDO1 180111Z 30005KT 09/M01 A3009 RMK A01 T00931007  RH  049%=      5-min Rain = 0
KDO1 180112Z 30005KT 09/M01 A3009 RMK A01 T00931007  RH  050%=      5-min Rain = 0
KDO1 180113Z 30004KT 09/M01 A3009 RMK A01 T00931007  RH  050%=      5-min Rain = 0
KDO1 180114Z 30003KT 09/M01 A3009 RMK A01 T00931007  RH  050%=      5-min Rain = 0
KDO1 180115Z 31003KT 09/M01 A3009 RMK A01 T00911010  RH  049%=      5-min Rain = 0
KDO1 180116Z 31003KT 09/M02 A3009 RMK A01 T00861015  RH  049%=      5-min Rain = 0
KDO1 180117Z 31004KT 08/M01 A3009 RMK A01 T00821013  RH  051%=      5-min Rain = 0
KDO1 180118Z 31004KT 08/M01 A3009 RMK A01 T00811010  RH  053%=      5-min Rain = 0
KDO1 180119Z 31004KT 08/M01 A3009 RMK A01 T00801010  RH  053%=      5-min Rain = 0
KDO1 180120Z 31004KT 08/M01 A3009 RMK A01 T00801011  RH  053%=      5-min Rain = 0
KDO1 180121Z 32004KT 08/M01 A3009 RMK A01 T00771012  RH  053%=      5-min Rain = 0
KDO1 180122Z 32004KT 08/M01 A3009 RMK A01 T00751011  RH  054%=      5-min Rain = 0
KDO1 180123Z 31004KT 08/M01 A3009 RMK A01 T00751010  RH  055%=      5-min Rain = 0
KDO1 180124Z 30004KT 08/M01 A3009 RMK A01 T00751009  RH  055%=      5-min Rain = 0
KDO1 180125Z 30004KT 08/M01 A3009 RMK A01 T00761008  RH  055%=      5-min Rain = 0
KDO1 180126Z 30004KT 08/M01 A3009 RMK A01 T00771009  RH  054%=      5-min Rain = 0
KDO1 180127Z 30003KT 08/M01 A3009 RMK A01 T00771009  RH  055%=      5-min Rain = 0
KDO1 180128Z 30003KT 08/M01 A3009 RMK A01 T00771009  RH  055%=      5-min Rain = 0
KDO1 180129Z 30003KT 08/M01 A3009 RMK A01 T00771009  RH  054%=      5-min Rain = 0
KDO1 180130Z 30002KT 08/M01 A3009 RMK A01 T00761010  RH  054%=      5-min Rain = 0
KDO1 180131Z 30002KT 08/M01 A3009 RMK A01 T00751011  RH  055%=      5-min Rain = 0
KDO1 180132Z 30002KT 07/M01 A3009 RMK A01 T00731011  RH  055%=      5-min Rain = 0
KDO1 180133Z 31002KT 07/M01 A3009 RMK A01 T00721011  RH  055%=      5-min Rain = 0
KDO1 180134Z 31004KT 07/M01 A3009 RMK A01 T00721010  RH  056%=      5-min Rain = 0
KDO1 180135Z 31005KT 07/M01 A3009 RMK A01 T00721011  RH  056%=      5-min Rain = 0
KDO1 180136Z 31005KT 07/M01 A3009 RMK A01 T00701011  RH  056%=      5-min Rain = 0
KDO1 180137Z 31006KT 07/M01 A3009 RMK A01 T00701010  RH  057%=      5-min Rain = 0
KDO1 180138Z 31005KT 07/M01 A3009 RMK A01 T00721008  RH  057%=      5-min Rain = 0
KDO1 180139Z 31004KT 08/M01 A3009 RMK A01 T00761007  RH  056%=      5-min Rain = 0
KDO1 180140Z 31004KT 08/M01 A3009 RMK A01 T00771007  RH  055%=      5-min Rain = 0
KDO1 180141Z 31004KT 08/M01 A3009 RMK A01 T00791007  RH  055%=      5-min Rain = 0
KDO1 180142Z 31004KT 08/M01 A3009 RMK A01 T00791008  RH  054%=      5-min Rain = 0
KDO1 180143Z 32003KT 08/M01 A3009 RMK A01 T00791008  RH  054%=      5-min Rain = 0
KDO1 180144Z 32004KT 08/M01 A301 RMK A01 T00791008  RH  054%=      5-min Rain = 0
KDO1 180145Z 32004KT 08/M01 A301 RMK A01 T00781009  RH  054%=      5-min Rain = 0
KDO1 180146Z 33002KT 08/M01 A301 RMK A01 T00781009  RH  054%=      5-min Rain = 0
KDO1 180147Z 35002KT 08/M01 A301 RMK A01 T00771011  RH  054%=      5-min Rain = 0
KDO1 180148Z 36002KT 07/M01 A301 RMK A01 T00741011  RH  055%=      5-min Rain = 0
KDO1 180149Z 34003KT 07/M01 A301 RMK A01 T00721012  RH  055%=      5-min Rain = 0
KDO1 180150Z 34002KT 07/M01 A301 RMK A01 T00711012  RH  056%=      5-min Rain = 0
KDO1 180151Z 34003KT 07/M01 A301 RMK A01 T00701011  RH  056%=      5-min Rain = 0
KDO1 180152Z 34003KT 07/M01 A301 RMK A01 T00691011  RH  057%=      5-min Rain = 0
KDO1 180153Z 34003KT 07/M01 A301 RMK A01 T00691010  RH  057%=      5-min Rain = 0
KDO1 180154Z 34003KT 07/M01 A301 RMK A01 T00701009  RH  057%=      5-min Rain = 0
KDO1 180155Z 33004KT 07/M01 A301 RMK A01 T00701009  RH  057%=      5-min Rain = 0
KDO1 180156Z 33004KT 07/M01 A301 RMK A01 T00711009  RH  057%=      5-min Rain = 0
KDO1 180157Z 33004KT 07/M01 A301 RMK A01 T00711010  RH  057%=      5-min Rain = 0
KDO1 180158Z 33003KT 07/M01 A301 RMK A01 T00711010  RH  057%=      5-min Rain = 0
KDO1 180159Z 32003KT 07/M01 A301 RMK A01 T00701010  RH  057%=      5-min Rain = 0
KDO1 180200Z 32002KT 07/M01 A301 RMK A01 T00691010  RH  057%=      5-min Rain = 0
KDO1 180201Z 33002KT 07/M01 A301 RMK A01 T00681011  RH  057%=      5-min Rain = 0
KDO1 180202Z 33002KT 07/M01 A301 RMK A01 T00671011  RH  057%=      5-min Rain = 0
KDO1 180203Z 34002KT 07/M01 A3009 RMK A01 T00661011  RH  058%=      5-min Rain = 0
KDO1 180204Z 35003KT 07/M01 A3009 RMK A01 T00651012  RH  058%=      5-min Rain = 0
KDO1 180205Z 34003KT 06/M01 A3009 RMK A01 T00631013  RH  058%=      5-min Rain = 0
KDO1 180206Z 34003KT 06/M01 A3009 RMK A01 T00621013  RH  059%=      5-min Rain = 0
KDO1 180207Z 33002KT 06/M01 A3009 RMK A01 T00611012  RH  059%=      5-min Rain = 0
KDO1 180208Z 33002KT 06/M01 A3009 RMK A01 T00601012  RH  060%=      5-min Rain = 0
KDO1 180209Z 33002KT 06/M01 A3009 RMK A01 T00601011  RH  060%=      5-min Rain = 0
KDO1 180210Z 33002KT 06/M01 A3009 RMK A01 T00621009  RH  060%=      5-min Rain = 0
KDO1 180211Z 33002KT 06/M01 A3009 RMK A01 T00641009  RH  060%=      5-min Rain = 0
KDO1 180212Z 33002KT 06/M01 A3009 RMK A01 T00641010  RH  059%=      5-min Rain = 0
KDO1 180213Z 33002KT 06/M01 A3009 RMK A01 T00641009  RH  059%=      5-min Rain = 0
KDO1 180214Z 33002KT 07/M01 A3009 RMK A01 T00651008  RH  059%=      5-min Rain = 0
KDO1 180215Z 33002KT 07/M01 A3009 RMK A01 T00661008  RH  059%=      5-min Rain = 0
KDO1 180216Z 34002KT 07/M01 A3009 RMK A01 T00671007  RH  059%=      5-min Rain = 0
KDO1 180217Z 34002KT 07/M01 A3009 RMK A01 T00691007  RH  059%=      5-min Rain = 0
KDO1 180218Z 35002KT 07/M01 A3009 RMK A01 T00711006  RH  058%=      5-min Rain = 0
KDO1 180219Z 35002KT 07/M01 A3009 RMK A01 T00731006  RH  057%=      5-min Rain = 0
KDO1 180220Z 34003KT 07/M01 A3009 RMK A01 T00731006  RH  057%=      5-min Rain = 0
KDO1 180221Z 35003KT 07/M01 A3009 RMK A01 T00731006  RH  057%=      5-min Rain = 0
KDO1 180222Z 35003KT 07/M01 A3009 RMK A01 T00741006  RH  057%=      5-min Rain = 0
KDO1 180223Z 35004KT 08/M01 A3009 RMK A01 T00751006  RH  057%=      5-min Rain = 0
KDO1 180224Z 36004KT 08/M01 A3009 RMK A01 T00751006  RH  057%=      5-min Rain = 0
KDO1 180225Z 35004KT 08/M01 A3009 RMK A01 T00751007  RH  056%=      5-min Rain = 0
KDO1 180226Z 35004KT 08/M01 A3009 RMK A01 T00751006  RH  056%=      5-min Rain = 0
KDO1 180227Z 35004KT 08/M01 A3009 RMK A01 T00751007  RH  056%=      5-min Rain = 0
KDO1 180228Z 35005KT 07/M01 A3009 RMK A01 T00741008  RH  056%=      5-min Rain = 0
KDO1 180229Z 35005KT 07/M01 A3009 RMK A01 T00721008  RH  057%=      5-min Rain = 0
KDO1 180230Z 35005KT 07/M01 A3009 RMK A01 T00701009  RH  057%=      5-min Rain = 0
KDO1 180231Z 35005KT 07/M01 A3009 RMK A01 T00671011  RH  058%=      5-min Rain = 0
KDO1 180232Z 35005KT 06/M01 A3009 RMK A01 T00631012  RH  059%=      5-min Rain = 0
KDO1 180233Z 36006KT 06/M01 A3009 RMK A01 T00611012  RH  060%=      5-min Rain = 0
KDO1 180234Z 35006KT 06/M01 A3009 RMK A01 T00591012  RH  060%=      5-min Rain = 0
KDO1 180235Z 35006KT 06/M01 A3009 RMK A01 T00591011  RH  061%=      5-min Rain = 0
KDO1 180236Z 35006KT 06/M01 A3009 RMK A01 T00581011  RH  061%=      5-min Rain = 0
KDO1 180237Z 35005KT 06/M01 A3009 RMK A01 T00581011  RH  061%=      5-min Rain = 0
KDO1 180238Z 34004KT 06/M01 A3009 RMK A01 T00571012  RH  061%=      5-min Rain = 0
KDO1 180239Z 33002KT 05/M02 A3009 RMK A01 T00541019  RH  059%=      5-min Rain = 0
KDO1 180240Z 34004KT 05/M02 A3009 RMK A01 T00471024  RH  060%=      5-min Rain = 0
KDO1 180241Z 34004KT 05/M02 A3009 RMK A01 T00451019  RH  063%=      5-min Rain = 0
KDO1 180242Z 34004KT 05/M02 A3009 RMK A01 T00461017  RH  064%=      5-min Rain = 0
KDO1 180243Z 34004KT 05/M02 A3009 RMK A01 T00461015  RH  065%=      5-min Rain = 0
KDO1 180244Z 34004KT 05/M01 A3009 RMK A01 T00471013  RH  065%=      5-min Rain = 0
KDO1 180245Z 33003KT 05/M02 A3009 RMK A01 T00461018  RH  063%=      5-min Rain = 0
KDO1 180246Z 33003KT 04/M02 A3009 RMK A01 T00431021  RH  063%=      5-min Rain = 0
KDO1 180247Z 33003KT 04/M02 A3009 RMK A01 T00401018  RH  065%=      5-min Rain = 0
KDO1 180248Z 33003KT 04/M02 A3009 RMK A01 T00411015  RH  067%=      5-min Rain = 0
KDO1 180249Z 33003KT 04/M01 A3009 RMK A01 T00421013  RH  067%=      5-min Rain = 0
KDO1 180250Z 33003KT 04/M01 A301 RMK A01 T00441012  RH  067%=      5-min Rain = 0
KDO1 180251Z 34002KT 05/M01 A301 RMK A01 T00461012  RH  066%=      5-min Rain = 0
KDO1 180252Z 34002KT 05/M01 A301 RMK A01 T00471014  RH  065%=      5-min Rain = 0
KDO1 180253Z 34001KT 05/M01 A301 RMK A01 T00471014  RH  065%=      5-min Rain = 0
KDO1 180254Z 35001KT 05/M01 A301 RMK A01 T00471012  RH  065%=      5-min Rain = 0
KDO1 180255Z 35001KT 05/M01 A301 RMK A01 T00471012  RH  065%=      5-min Rain = 0
KDO1 180256Z 34001KT 05/M01 A301 RMK A01 T00481011  RH  066%=      5-min Rain = 0
KDO1 180257Z 33000KT 05/M01 A301 RMK A01 T00501010  RH  065%=      5-min Rain = 0
KDO1 180258Z 00000KT 05/M01 A301 RMK A01 T00511009  RH  065%=      5-min Rain = 0
KDO1 180259Z 00000KT 05/M01 A301 RMK A01 T00521009  RH  065%=      5-min Rain = 0
KDO1 180300Z 00000KT 05/M01 A301 RMK A01 T00531009  RH  064%=      5-min Rain = 0
KDO1 180301Z 00000KT 05/M01 A301 RMK A01 T00541009  RH  064%=      5-min Rain = 0
KDO1 180302Z 00000KT 05/M01 A301 RMK A01 T00541009  RH  064%=      5-min Rain = 0
KDO1 180303Z 00000KT 05/M01 A301 RMK A01 T00541010  RH  064%=      5-min Rain = 0
KDO1 180304Z 00000KT 05/M01 A301 RMK A01 T00541010  RH  063%=      5-min Rain = 0
KDO1 180305Z 00000KT 06/M01 A301 RMK A01 T00551011  RH  063%=      5-min Rain = 0
KDO1 180306Z 00000KT 05/M01 A301 RMK A01 T00541012  RH  062%=      5-min Rain = 0
KDO1 180307Z 00000KT 05/M01 A301 RMK A01 T00541013  RH  062%=      5-min Rain = 0
KDO1 180308Z 00000KT 05/M01 A301 RMK A01 T00531013  RH  062%=      5-min Rain = 0
KDO1 180309Z 00000KT 05/M01 A301 RMK A01 T00521014  RH  063%=      5-min Rain = 0
KDO1 180310Z 00000KT 05/M01 A301 RMK A01 T00511014  RH  063%=      5-min Rain = 0
KDO1 180311Z 19001KT 05/M01 A301 RMK A01 T00511013  RH  063%=      5-min Rain = 0
KDO1 180312Z 19002KT 05/M01 A301 RMK A01 T00501013  RH  063%=      5-min Rain = 0
KDO1 180313Z 19002KT 05/M01 A301 RMK A01 T00501013  RH  064%=      5-min Rain = 0
KDO1 180314Z 19002KT 05/M01 A301 RMK A01 T00501013  RH  064%=      5-min Rain = 0
KDO1 180315Z 19002KT 05/M01 A301 RMK A01 T00491014  RH  064%=      5-min Rain = 0
KDO1 180316Z 19002KT 05/M01 A301 RMK A01 T00491014  RH  064%=      5-min Rain = 0
KDO1 180317Z 20002KT 05/M01 A301 RMK A01 T00481014  RH  064%=      5-min Rain = 0
KDO1 180318Z 21002KT 05/M02 A3009 RMK A01 T00481015  RH  064%=      5-min Rain = 0
KDO1 180319Z 21003KT 05/M02 A3009 RMK A01 T00471015  RH  064%=      5-min Rain = 0
KDO1 180320Z 22003KT 05/M02 A3009 RMK A01 T00461016  RH  064%=      5-min Rain = 0
KDO1 180321Z 22003KT 05/M02 A3009 RMK A01 T00451017  RH  064%=      5-min Rain = 0
KDO1 180322Z 22003KT 04/M02 A3009 RMK A01 T00441016  RH  065%=      5-min Rain = 0
KDO1 180323Z 21003KT 04/M02 A3009 RMK A01 T00441016  RH  065%=      5-min Rain = 0
KDO1 180324Z 22003KT 04/M02 A3009 RMK A01 T00441016  RH  065%=      5-min Rain = 0
KDO1 180325Z 22003KT 04/M02 A3009 RMK A01 T00431016  RH  065%=      5-min Rain = 0
KDO1 180326Z 21003KT 04/M02 A3009 RMK A01 T00431016  RH  066%=      5-min Rain = 0
KDO1 180327Z 21003KT 04/M02 A3009 RMK A01 T00431016  RH  066%=      5-min Rain = 0
KDO1 180328Z 22004KT 04/M02 A3009 RMK A01 T00421015  RH  066%=      5-min Rain = 0
KDO1 180329Z 23004KT 04/M02 A3009 RMK A01 T00431015  RH  066%=      5-min Rain = 0
KDO1 180330Z 23004KT 04/M02 A3009 RMK A01 T00431015  RH  066%=      5-min Rain = 0
KDO1 180331Z 23004KT 04/M02 A3009 RMK A01 T00431015  RH  066%=      5-min Rain = 0
KDO1 180332Z 24004KT 04/M02 A3009 RMK A01 T00431015  RH  066%=      5-min Rain = 0
KDO1 180333Z 25004KT 04/M02 A3009 RMK A01 T00431015  RH  066%=      5-min Rain = 0
KDO1 180334Z 24004KT 04/M01 A3009 RMK A01 T00431014  RH  066%=      5-min Rain = 0
KDO1 180335Z 24003KT 04/M01 A3009 RMK A01 T00431014  RH  066%=      5-min Rain = 0
KDO1 180336Z 24004KT 04/M02 A3009 RMK A01 T00431015  RH  066%=      5-min Rain = 0
KDO1 180337Z 25004KT 04/M02 A3009 RMK A01 T00431015  RH  066%=      5-min Rain = 0
KDO1 180338Z 25004KT 04/M02 A3009 RMK A01 T00421017  RH  066%=      5-min Rain = 0
KDO1 180339Z 25003KT 04/M02 A3009 RMK A01 T00421016  RH  066%=      5-min Rain = 0
KDO1 180340Z 25003KT 04/M02 A3009 RMK A01 T00411016  RH  066%=      5-min Rain = 0
KDO1 180341Z 25003KT 04/M02 A3009 RMK A01 T00411015  RH  067%=      5-min Rain = 0
KDO1 180342Z 25003KT 04/M02 A3009 RMK A01 T00401017  RH  066%=      5-min Rain = 0
KDO1 180343Z 27002KT 04/M02 A3009 RMK A01 T00391019  RH  066%=      5-min Rain = 0
KDO1 180344Z 28003KT 04/M02 A3009 RMK A01 T00371019  RH  067%=      5-min Rain = 0
KDO1 180345Z 28003KT 04/M02 A3009 RMK A01 T00361018  RH  068%=      5-min Rain = 0
KDO1 180346Z 28002KT 04/M02 A3009 RMK A01 T00351017  RH  069%=      5-min Rain = 0
KDO1 180347Z 29003KT 04/M02 A3009 RMK A01 T00351017  RH  069%=      5-min Rain = 0
KDO1 180348Z 29002KT 04/M02 A3009 RMK A01 T00351017  RH  069%=      5-min Rain = 0
KDO1 180349Z 29003KT 04/M02 A3009 RMK A01 T00351017  RH  069%=      5-min Rain = 0
KDO1 180350Z 29003KT 04/M02 A3009 RMK A01 T00351016  RH  069%=      5-min Rain = 0
KDO1 180351Z 30003KT 04/M02 A3009 RMK A01 T00351015  RH  070%=      5-min Rain = 0
KDO1 180352Z 30003KT 04/M01 A3009 RMK A01 T00361014  RH  070%=      5-min Rain = 0
KDO1 180353Z 30004KT 04/M01 A3008 RMK A01 T00381012  RH  070%=      5-min Rain = 0
KDO1 180354Z 30004KT 04/M01 A3008 RMK A01 T00401011  RH  069%=      5-min Rain = 0
KDO1 180355Z 30003KT 04/M01 A3008 RMK A01 T00411012  RH  069%=      5-min Rain = 0
KDO1 180356Z 30003KT 04/M01 A3008 RMK A01 T00411013  RH  068%=      5-min Rain = 0
KDO1 180357Z 31001KT 04/M01 A3008 RMK A01 T00411014  RH  067%=      5-min Rain = 0
KDO1 180358Z 32001KT 04/M02 A3008 RMK A01 T00401015  RH  067%=      5-min Rain = 0
KDO1 180359Z 32001KT 04/M02 A3008 RMK A01 T00381018  RH  067%=      5-min Rain = 0
KDO1 180400Z 31000KT 04/M02 A3008 RMK A01 T00371018  RH  067%=      5-min Rain = 0
KDO1 180401Z 00000KT 04/M02 A3008 RMK A01 T00351019  RH  068%=      5-min Rain = 0
KDO1 180402Z 25000KT 03/M02 A3008 RMK A01 T00341019  RH  068%=      5-min Rain = 0
KDO1 180403Z 23001KT 03/M02 A3008 RMK A01 T00331018  RH  069%=      5-min Rain = 0
KDO1 180404Z 25001KT 03/M02 A3008 RMK A01 T00331017  RH  070%=      5-min Rain = 0
KDO1 180405Z 27002KT 03/M02 A3008 RMK A01 T00331015  RH  071%=      5-min Rain = 0
KDO1 180406Z 25002KT 03/M02 A3008 RMK A01 T00341015  RH  070%=      5-min Rain = 0
KDO1 180407Z 24003KT 03/M02 A3008 RMK A01 T00341017  RH  069%=      5-min Rain = 0
KDO1 180408Z 24003KT 03/M02 A3008 RMK A01 T00331017  RH  069%=      5-min Rain = 0
KDO1 180409Z 23003KT 03/M02 A3008 RMK A01 T00331016  RH  071%=      5-min Rain = 0
KDO1 180410Z 24003KT 03/M02 A3008 RMK A01 T00331016  RH  070%=      5-min Rain = 0
KDO1 180411Z 24004KT 03/M02 A3008 RMK A01 T00331016  RH  070%=      5-min Rain = 0
KDO1 180412Z 23004KT 03/M02 A3008 RMK A01 T00331016  RH  070%=      5-min Rain = 0
KDO1 180413Z 23004KT 03/M02 A3007 RMK A01 T00321016  RH  071%=      5-min Rain = 0
KDO1 180414Z 24004KT 03/M02 A3007 RMK A01 T00321017  RH  070%=      5-min Rain = 0
KDO1 180415Z 23005KT 03/M02 A3007 RMK A01 T00311018  RH  070%=      5-min Rain = 0
KDO1 180416Z 23005KT 03/M02 A3007 RMK A01 T00311017  RH  071%=      5-min Rain = 0
KDO1 180417Z 23005KT 03/M02 A3007 RMK A01 T00311016  RH  071%=      5-min Rain = 0
KDO1 180418Z 23005KT 03/M01 A3007 RMK A01 T00331014  RH  071%=      5-min Rain = 0
KDO1 180419Z 24006KT 04/M01 A3007 RMK A01 T00351013  RH  071%=      5-min Rain = 0
KDO1 180420Z 24006KT 04/M01 A3007 RMK A01 T00361014  RH  070%=      5-min Rain = 0
KDO1 180421Z 24006KT 04/M01 A3007 RMK A01 T00371014  RH  069%=      5-min Rain = 0
KDO1 180422Z 24006KT 04/M02 A3007 RMK A01 T00361015  RH  069%=      5-min Rain = 0
KDO1 180423Z 24006KT 04/M02 A3007 RMK A01 T00371015  RH  069%=      5-min Rain = 0
KDO1 180424Z 24006KT 04/M01 A3007 RMK A01 T00371014  RH  069%=      5-min Rain = 0
KDO1 180425Z 24005KT 04/M01 A3007 RMK A01 T00371014  RH  069%=      5-min Rain = 0
KDO1 180426Z 25005KT 04/M01 A3007 RMK A01 T00381014  RH  069%=      5-min Rain = 0
KDO1 180427Z 25005KT 04/M01 A3007 RMK A01 T00391014  RH  069%=      5-min Rain = 0
KDO1 180428Z 26005KT 04/M01 A3007 RMK A01 T00391014  RH  068%=      5-min Rain = 0
KDO1 180429Z 26005KT 04/M01 A3007 RMK A01 T00401013  RH  068%=      5-min Rain = 0
KDO1 180430Z 26004KT 04/M01 A3007 RMK A01 T00401013  RH  068%=      5-min Rain = 0
KDO1 180431Z 27004KT 04/M01 A3007 RMK A01 T00401013  RH  068%=      5-min Rain = 0
KDO1 180432Z 27004KT 04/M01 A3007 RMK A01 T00411013  RH  068%=      5-min Rain = 0
KDO1 180433Z 26005KT 04/M01 A3007 RMK A01 T00411012  RH  068%=      5-min Rain = 0
KDO1 180434Z 26005KT 04/M01 A3007 RMK A01 T00421012  RH  068%=      5-min Rain = 0
KDO1 180435Z 26005KT 04/M01 A3007 RMK A01 T00421012  RH  068%=      5-min Rain = 0
KDO1 180436Z 26005KT 04/M01 A3007 RMK A01 T00431012  RH  067%=      5-min Rain = 0
KDO1 180437Z 26005KT 04/M01 A3007 RMK A01 T00431012  RH  067%=      5-min Rain = 0
KDO1 180438Z 27004KT 04/M01 A3007 RMK A01 T00431012  RH  067%=      5-min Rain = 0
KDO1 180439Z 26004KT 04/M01 A3006 RMK A01 T00441012  RH  067%=      5-min Rain = 0
KDO1 180440Z 27005KT 04/M01 A3006 RMK A01 T00441012  RH  067%=      5-min Rain = 0
KDO1 180441Z 26005KT 04/M01 A3006 RMK A01 T00441012  RH  067%=      5-min Rain = 0
KDO1 180442Z 26005KT 05/M01 A3006 RMK A01 T00451012  RH  067%=      5-min Rain = 0
KDO1 180443Z 26004KT 04/M01 A3006 RMK A01 T00441012  RH  067%=      5-min Rain = 0
KDO1 180444Z 26004KT 04/M01 A3006 RMK A01 T00441012  RH  067%=      5-min Rain = 0
KDO1 180445Z 26003KT 05/M01 A3006 RMK A01 T00451012  RH  067%=      5-min Rain = 0
KDO1 180446Z 26003KT 05/M01 A3006 RMK A01 T00451012  RH  067%=      5-min Rain = 0
KDO1 180447Z 25003KT 04/M01 A3006 RMK A01 T00441011  RH  067%=      5-min Rain = 0
KDO1 180448Z 25003KT 04/M01 A3006 RMK A01 T00441013  RH  066%=      5-min Rain = 0
KDO1 180449Z 25002KT 04/M02 A3006 RMK A01 T00421015  RH  066%=      5-min Rain = 0
KDO1 180450Z 25002KT 04/M02 A3006 RMK A01 T00401016  RH  067%=      5-min Rain = 0
KDO1 180451Z 25002KT 04/M02 A3006 RMK A01 T00381016  RH  068%=      5-min Rain = 0
KDO1 180452Z 25001KT 04/M02 A3006 RMK A01 T00361016  RH  068%=      5-min Rain = 0
KDO1 180453Z 27002KT 04/M02 A3006 RMK A01 T00351017  RH  069%=      5-min Rain = 0
KDO1 180454Z 25001KT 04/M02 A3006 RMK A01 T00351017  RH  069%=      5-min Rain = 0
KDO1 180455Z 25001KT 03/M02 A3006 RMK A01 T00331018  RH  069%=      5-min Rain = 0
KDO1 180456Z 25001KT 03/M02 A3006 RMK A01 T00321019  RH  069%=      5-min Rain = 0
KDO1 180457Z 24001KT 03/M02 A3006 RMK A01 T00301019  RH  070%=      5-min Rain = 0
KDO1 180458Z 23000KT 03/M02 A3006 RMK A01 T00291019  RH  070%=      5-min Rain = 0
KDO1 180459Z 20001KT 03/M02 A3006 RMK A01 T00281020  RH  071%=      5-min Rain = 0
KDO1 180500Z 21001KT 03/M02 A3006 RMK A01 T00281020  RH  071%=      5-min Rain = 0
KDO1 180501Z 21001KT 03/M02 A3006 RMK A01 T00271021  RH  071%=      5-min Rain = 0
KDO1 180502Z 21002KT 03/M02 A3006 RMK A01 T00261021  RH  071%=      5-min Rain = 0
KDO1 180503Z 20002KT 03/M02 A3006 RMK A01 T00261020  RH  072%=      5-min Rain = 0
KDO1 180504Z 19002KT 03/M02 A3006 RMK A01 T00251020  RH  072%=      5-min Rain = 0
KDO1 180505Z 19003KT 03/M02 A3006 RMK A01 T00251021  RH  072%=      5-min Rain = 0
KDO1 180506Z 20003KT 03/M02 A3006 RMK A01 T00251020  RH  072%=      5-min Rain = 0
KDO1 180507Z 22002KT 03/M02 A3006 RMK A01 T00251019  RH  073%=      5-min Rain = 0
KDO1 180508Z 22002KT 03/M02 A3006 RMK A01 T00251019  RH  073%=      5-min Rain = 0
KDO1 180509Z 22003KT 03/M02 A3005 RMK A01 T00251018  RH  073%=      5-min Rain = 0
KDO1 180510Z 23003KT 03/M02 A3005 RMK A01 T00251018  RH  074%=      5-min Rain = 0
KDO1 180511Z 25003KT 03/M02 A3005 RMK A01 T00251017  RH  074%=      5-min Rain = 0
KDO1 180512Z 25003KT 03/M02 A3005 RMK A01 T00261016  RH  074%=      5-min Rain = 0
KDO1 180513Z 26003KT 03/M02 A3005 RMK A01 T00271016  RH  073%=      5-min Rain = 0
KDO1 180514Z 27003KT 03/M02 A3005 RMK A01 T00271016  RH  073%=      5-min Rain = 0
KDO1 180515Z 28003KT 03/M02 A3005 RMK A01 T00271016  RH  073%=      5-min Rain = 0
KDO1 180516Z 28003KT 03/M02 A3005 RMK A01 T00281016  RH  073%=      5-min Rain = 0
KDO1 180517Z 29003KT 03/M02 A3005 RMK A01 T00281018  RH  072%=      5-min Rain = 0
KDO1 180518Z 29002KT 03/M02 A3005 RMK A01 T00271019  RH  072%=      5-min Rain = 0
KDO1 180519Z 30002KT 03/M02 A3005 RMK A01 T00261019  RH  072%=      5-min Rain = 0
KDO1 180520Z 31002KT 03/M02 A3005 RMK A01 T00251019  RH  072%=      5-min Rain = 0
KDO1 180521Z 33001KT 02/M02 A3005 RMK A01 T00241020  RH  073%=      5-min Rain = 0
KDO1 180522Z 35001KT 02/M02 A3005 RMK A01 T00241020  RH  073%=      5-min Rain = 0
KDO1 180523Z 33001KT 02/M02 A3005 RMK A01 T00231019  RH  073%=      5-min Rain = 0
KDO1 180524Z 33001KT 02/M02 A3005 RMK A01 T00231019  RH  074%=      5-min Rain = 0
KDO1 180525Z 32001KT 02/M02 A3005 RMK A01 T00231020  RH  073%=      5-min Rain = 0
KDO1 180526Z 31001KT 02/M02 A3005 RMK A01 T00231020  RH  073%=      5-min Rain = 0
KDO1 180527Z 30001KT 02/M02 A3005 RMK A01 T00241018  RH  074%=      5-min Rain = 0
KDO1 180528Z 30002KT 03/M02 A3005 RMK A01 T00261015  RH  074%=      5-min Rain = 0
KDO1 180529Z 31001KT 03/M01 A3005 RMK A01 T00301014  RH  073%=      5-min Rain = 0
KDO1 180530Z 30001KT 03/M02 A3005 RMK A01 T00311015  RH  072%=      5-min Rain = 0
KDO1 180531Z 30001KT 03/M01 A3005 RMK A01 T00321014  RH  072%=      5-min Rain = 0
KDO1 180532Z 28001KT 03/M01 A3005 RMK A01 T00331014  RH  071%=      5-min Rain = 0
KDO1 180533Z 29001KT 03/M01 A3005 RMK A01 T00341013  RH  071%=      5-min Rain = 0
KDO1 180534Z 29002KT 04/M01 A3005 RMK A01 T00351012  RH  071%=      5-min Rain = 0
KDO1 180535Z 29001KT 04/M01 A3005 RMK A01 T00371013  RH  070%=      5-min Rain = 0
KDO1 180536Z 28001KT 04/M01 A3005 RMK A01 T00371013  RH  070%=      5-min Rain = 0
KDO1 180537Z 28002KT 04/M01 A3004 RMK A01 T00371013  RH  070%=      5-min Rain = 0
KDO1 180538Z 28002KT 04/M01 A3005 RMK A01 T00371013  RH  070%=      5-min Rain = 0
KDO1 180539Z 26002KT 04/M01 A3005 RMK A01 T00371014  RH  070%=      5-min Rain = 0
KDO1 180540Z 26002KT 04/M01 A3005 RMK A01 T00361014  RH  070%=      5-min Rain = 0
KDO1 180541Z 27002KT 04/M01 A3004 RMK A01 T00361014  RH  070%=      5-min Rain = 0
KDO1 180542Z 26001KT 04/M02 A3004 RMK A01 T00351015  RH  070%=      5-min Rain = 0
KDO1 180543Z 27002KT 04/M01 A3004 RMK A01 T00351013  RH  071%=      5-min Rain = 0
KDO1 180544Z 27002KT 04/M01 A3004 RMK A01 T00351014  RH  070%=      5-min Rain = 0
KDO1 180545Z 26002KT 04/M01 A3004 RMK A01 T00351014  RH  070%=      5-min Rain = 0
KDO1 180546Z 26001KT 04/M02 A3004 RMK A01 T00351015  RH  070%=      5-min Rain = 0
KDO1 180547Z 26001KT 03/M02 A3004 RMK A01 T00341016  RH  070%=      5-min Rain = 0
KDO1 180548Z 25001KT 03/M02 A3004 RMK A01 T00331017  RH  070%=      5-min Rain = 0
KDO1 180549Z 24001KT 03/M02 A3004 RMK A01 T00311018  RH  070%=      5-min Rain = 0
KDO1 180550Z 24001KT 03/M02 A3004 RMK A01 T00311016  RH  072%=      5-min Rain = 0
KDO1 180551Z 24001KT 03/M02 A3004 RMK A01 T00311016  RH  072%=      5-min Rain = 0
KDO1 180552Z 24000KT 03/M01 A3004 RMK A01 T00311014  RH  072%=      5-min Rain = 0
KDO1 180553Z 00000KT 03/M02 A3004 RMK A01 T00311017  RH  071%=      5-min Rain = 0
KDO1 180554Z 00000KT 03/M02 A3004 RMK A01 T00291019  RH  071%=      5-min Rain = 0
KDO1 180555Z 00000KT 03/M02 A3004 RMK A01 T00281019  RH  071%=      5-min Rain = 0
KDO1 180556Z 00000KT 03/M02 A3004 RMK A01 T00271018  RH  072%=      5-min Rain = 0
KDO1 180557Z 00000KT 03/M02 A3004 RMK A01 T00261017  RH  073%=      5-min Rain = 0
KDO1 180558Z 00000KT 03/M02 A3004 RMK A01 T00271016  RH  073%=      5-min Rain = 0
KDO1 180559Z 00000KT 03/M02 A3004 RMK A01 T00281016  RH  073%=      5-min Rain = 0

Page generated in 0.1416 seconds.